Time,TemperatureF,DewpointF,PressureIn,WindDirection,WindDirectionDegrees,WindSpeedMPH,WindSpeedGustMPH,Humidity,HourlyPrecipIn,Conditions,Clouds,dailyrainin,SoftwareType,DateUTC
2013-05-19 00:02:00,42.4,41.9,29.84,NNW,327,4.0,5.0,98,0.00,,,0.00,VWS V14.01,2013-05-19 05:02:00,
2013-05-19 00:03:00,42.4,41.9,29.84,NNW,327,4.0,5.0,98,0.00,,,0.00,VWS V14.01,2013-05-19 05:03:00,
2013-05-19 00:04:00,42.3,41.8,29.84,NNW,327,2.0,5.0,98,0.00,,,0.00,VWS V14.01,2013-05-19 05:04:00,
2013-05-19 00:08:00,42.1,41.6,29.84,NNW,327,4.0,5.0,98,0.00,,,0.00,VWS V14.01,2013-05-19 05:08:00,
2013-05-19 00:09:00,42.1,41.3,29.84,NNW,327,4.0,5.0,97,0.00,,,0.00,VWS V14.01,2013-05-19 05:09:00,
2013-05-19 00:13:00,41.7,41.2,29.85,NNW,327,0.0,5.0,98,0.00,,,0.00,VWS V14.01,2013-05-19 05:13:00,
2013-05-19 00:14:00,41.7,41.2,29.85,NNW,327,0.0,5.0,98,0.00,,,0.00,VWS V14.01,2013-05-19 05:14:00,
2013-05-19 00:15:00,41.7,41.2,29.84,NNW,327,2.0,5.0,98,0.00,,,0.00,VWS V14.01,2013-05-19 05:15:00,
2013-05-19 00:19:00,41.5,41.0,29.85,NNW,327,0.0,5.0,98,0.00,,,0.00,VWS V14.01,2013-05-19 05:19:00,
2013-05-19 00:20:00,41.5,41.0,29.85,NNW,327,0.0,5.0,98,0.00,,,0.00,VWS V14.01,2013-05-19 05:20:00,
2013-05-19 00:24:00,41.5,41.0,29.85,NNW,327,2.0,2.0,98,0.00,,,0.00,VWS V14.01,2013-05-19 05:24:00,
2013-05-19 00:25:00,41.5,41.0,29.85,NNW,327,3.0,4.0,98,0.00,,,0.00,VWS V14.01,2013-05-19 05:25:00,
2013-05-19 00:29:00,41.5,41.0,29.85,NNW,327,0.0,4.0,98,0.00,,,0.00,VWS V14.01,2013-05-19 05:29:00,
2013-05-19 00:30:00,41.5,41.0,29.85,NNW,327,0.0,4.0,98,0.00,,,0.00,VWS V14.01,2013-05-19 05:30:00,
2013-05-19 00:34:00,41.5,41.0,29.85,NNW,327,0.0,4.0,98,0.00,,,0.00,VWS V14.01,2013-05-19 05:34:00,
2013-05-19 00:35:00,41.5,41.0,29.85,NNW,327,0.0,4.0,98,0.00,,,0.00,VWS V14.01,2013-05-19 05:35:00,
2013-05-19 00:39:00,41.4,40.9,29.85,NNW,327,0.0,4.0,98,0.00,,,0.00,VWS V14.01,2013-05-19 05:39:00,
2013-05-19 00:40:00,41.4,40.9,29.85,NNW,327,0.0,4.0,98,0.00,,,0.00,VWS V14.01,2013-05-19 05:40:00,
2013-05-19 00:44:00,41.4,40.9,29.84,NNW,327,0.0,4.0,98,0.00,,,0.00,VWS V14.01,2013-05-19 05:44:00,
2013-05-19 00:45:00,41.4,40.9,29.84,NNW,327,0.0,4.0,98,0.00,,,0.00,VWS V14.01,2013-05-19 05:45:00,
2013-05-19 00:49:00,41.4,40.9,29.84,NNW,327,0.0,4.0,98,0.00,,,0.00,VWS V14.01,2013-05-19 05:49:00,
2013-05-19 00:50:00,41.4,40.9,29.84,NNW,327,0.0,4.0,98,0.00,,,0.00,VWS V14.01,2013-05-19 05:50:00,
2013-05-19 00:51:00,41.4,40.9,29.84,NNW,327,0.0,4.0,98,0.00,,,0.00,VWS V14.01,2013-05-19 05:51:00,
2013-05-19 00:54:00,41.4,40.9,29.84,NNW,327,0.0,0.0,98,0.00,,,0.00,VWS V14.01,2013-05-19 05:54:00,
2013-05-19 00:55:00,41.4,40.9,29.84,NNW,327,0.0,0.0,98,0.00,,,0.00,VWS V14.01,2013-05-19 05:55:00,
2013-05-19 00:56:00,41.4,40.9,29.84,NNW,327,0.0,0.0,98,0.00,,,0.00,VWS V14.01,2013-05-19 05:56:00,
2013-05-19 00:59:00,41.4,40.9,29.85,NNW,327,1.0,3.0,98,0.00,,,0.00,VWS V14.01,2013-05-19 05:59:00,
2013-05-19 01:00:00,41.4,40.9,29.85,NNW,327,0.0,3.0,98,0.00,,,0.00,VWS V14.01,2013-05-19 06:00:00,
2013-05-19 01:01:00,41.4,40.9,29.85,NNW,327,0.0,3.0,98,0.00,,,0.00,VWS V14.01,2013-05-19 06:01:00,
2013-05-19 01:05:00,41.3,40.8,29.84,NNW,327,0.0,3.0,98,0.00,,,0.00,VWS V14.01,2013-05-19 06:05:00,
2013-05-19 01:06:00,41.3,40.8,29.84,NNW,327,0.0,3.0,98,0.00,,,0.00,VWS V14.01,2013-05-19 06:06:00,
2013-05-19 01:08:00,41.3,40.8,29.84,NNW,327,0.0,3.0,98,0.00,,,0.00,VWS V14.01,2013-05-19 06:08:00,
2013-05-19 01:11:00,41.3,40.8,29.84,NNW,327,0.0,3.0,98,0.00,,,0.00,VWS V14.01,2013-05-19 06:11:00,
2013-05-19 01:13:00,41.3,40.8,29.84,NNW,327,0.0,3.0,98,0.00,,,0.00,VWS V14.01,2013-05-19 06:13:00,
2013-05-19 01:16:00,41.3,40.8,29.83,NNW,327,0.0,3.0,98,0.00,,,0.00,VWS V14.01,2013-05-19 06:16:00,
2013-05-19 01:17:00,41.3,40.8,29.84,NNW,327,0.0,3.0,98,0.00,,,0.00,VWS V14.01,2013-05-19 06:17:00,
2013-05-19 01:18:00,41.3,40.8,29.84,NNW,327,0.0,3.0,98,0.00,,,0.00,VWS V14.01,2013-05-19 06:18:00,
2013-05-19 01:21:00,41.3,40.8,29.84,NNW,327,1.0,3.0,98,0.00,,,0.00,VWS V14.01,2013-05-19 06:21:00,
2013-05-19 01:22:00,41.3,40.8,29.84,NNW,327,2.0,3.0,98,0.00,,,0.00,VWS V14.01,2013-05-19 06:22:00,
2013-05-19 01:23:00,41.3,40.8,29.84,NNW,327,0.0,3.0,98,0.00,,,0.00,VWS V14.01,2013-05-19 06:23:00,
2013-05-19 01:26:00,41.3,40.8,29.83,NNW,327,1.0,1.0,98,0.00,,,0.00,VWS V14.01,2013-05-19 06:26:00,
2013-05-19 01:27:00,41.2,40.7,29.83,NNW,327,2.0,3.0,98,0.00,,,0.00,VWS V14.01,2013-05-19 06:27:00,
2013-05-19 01:28:00,41.2,40.7,29.83,NNW,327,0.0,3.0,98,0.00,,,0.00,VWS V14.01,2013-05-19 06:28:00,
2013-05-19 01:31:00,41.1,40.6,29.83,NNW,327,2.0,3.0,98,0.00,,,0.00,VWS V14.01,2013-05-19 06:31:00,
2013-05-19 01:32:00,41.1,40.6,29.83,NNW,327,2.0,3.0,98,0.00,,,0.00,VWS V14.01,2013-05-19 06:32:00,
2013-05-19 01:33:00,41.1,40.6,29.83,NNW,327,1.0,3.0,98,0.00,,,0.00,VWS V14.01,2013-05-19 06:33:00,
2013-05-19 01:36:00,41.1,40.6,29.83,NNW,327,0.0,3.0,98,0.00,,,0.00,VWS V14.01,2013-05-19 06:36:00,
2013-05-19 01:38:00,41.0,40.5,29.83,NNW,327,1.0,3.0,98,0.00,,,0.00,VWS V14.01,2013-05-19 06:38:00,
2013-05-19 01:41:00,40.9,40.4,29.83,NNW,327,0.0,3.0,98,0.00,,,0.00,VWS V14.01,2013-05-19 06:41:00,
2013-05-19 01:43:00,40.9,40.4,29.83,NNW,327,0.0,3.0,98,0.00,,,0.00,VWS V14.01,2013-05-19 06:43:00,
2013-05-19 01:44:00,40.9,40.4,29.83,NNW,327,0.0,3.0,98,0.00,,,0.00,VWS V14.01,2013-05-19 06:44:00,
2013-05-19 01:46:00,40.9,40.4,29.82,NNW,327,0.0,3.0,98,0.00,,,0.00,VWS V14.01,2013-05-19 06:46:00,
2013-05-19 01:48:00,40.9,40.4,29.83,NNW,327,0.0,3.0,98,0.00,,,0.00,VWS V14.01,2013-05-19 06:48:00,
2013-05-19 01:49:00,40.9,40.4,29.83,NNW,327,0.0,3.0,98,0.00,,,0.00,VWS V14.01,2013-05-19 06:49:00,
2013-05-19 01:52:00,40.9,40.4,29.83,NNW,327,0.0,3.0,98,0.00,,,0.00,VWS V14.01,2013-05-19 06:52:00,
2013-05-19 01:53:00,40.9,40.4,29.83,NNW,327,0.0,3.0,98,0.00,,,0.00,VWS V14.01,2013-05-19 06:53:00,
2013-05-19 01:54:00,40.9,40.4,29.83,NNW,327,2.0,2.0,98,0.00,,,0.00,VWS V14.01,2013-05-19 06:54:00,
2013-05-19 01:57:00,40.9,40.4,29.83,NNW,327,0.0,2.0,98,0.00,,,0.00,VWS V14.01,2013-05-19 06:57:00,
2013-05-19 01:58:00,40.9,40.4,29.83,NNW,327,0.0,2.0,98,0.00,,,0.00,VWS V14.01,2013-05-19 06:58:00,
2013-05-19 01:59:00,40.9,40.4,29.83,NNW,327,0.0,2.0,98,0.00,,,0.00,VWS V14.01,2013-05-19 06:59:00,
2013-05-19 02:02:00,40.9,40.4,29.83,NNW,327,0.0,2.0,98,0.00,,,0.00,VWS V14.01,2013-05-19 07:02:00,
2013-05-19 02:03:00,41.0,40.5,29.83,NNW,327,0.0,2.0,98,0.00,,,0.00,VWS V14.01,2013-05-19 07:03:00,
2013-05-19 02:04:00,40.9,40.4,29.83,NNW,327,0.0,2.0,98,0.00,,,0.00,VWS V14.01,2013-05-19 07:04:00,
2013-05-19 02:05:00,40.9,40.4,29.83,NNW,327,0.0,2.0,98,0.00,,,0.00,VWS V14.01,2013-05-19 07:05:00,
2013-05-19 02:07:00,40.9,40.4,29.83,NNW,327,0.0,2.0,98,0.00,,,0.00,VWS V14.01,2013-05-19 07:07:00,
2013-05-19 02:08:00,40.9,40.4,29.83,NNW,327,0.0,2.0,98,0.00,,,0.00,VWS V14.01,2013-05-19 07:08:00,
2013-05-19 02:09:00,40.9,40.4,29.83,NNW,327,0.0,2.0,98,0.00,,,0.00,VWS V14.01,2013-05-19 07:09:00,
2013-05-19 02:10:00,40.9,40.4,29.83,NNW,327,0.0,2.0,98,0.00,,,0.00,VWS V14.01,2013-05-19 07:10:00,
2013-05-19 02:12:00,40.9,40.4,29.83,NNW,327,0.0,2.0,98,0.00,,,0.00,VWS V14.01,2013-05-19 07:12:00,
2013-05-19 02:13:00,40.9,40.4,29.83,NNW,327,0.0,2.0,98,0.00,,,0.00,VWS V14.01,2013-05-19 07:13:00,
2013-05-19 02:14:00,40.9,40.4,29.83,NNW,327,0.0,2.0,98,0.00,,,0.00,VWS V14.01,2013-05-19 07:14:00,
2013-05-19 02:15:00,40.9,40.4,29.83,NNW,327,0.0,2.0,98,0.00,,,0.00,VWS V14.01,2013-05-19 07:15:00,
2013-05-19 02:17:00,40.9,40.4,29.83,NNW,327,0.0,2.0,98,0.00,,,0.00,VWS V14.01,2013-05-19 07:17:00,
2013-05-19 02:18:00,40.9,40.4,29.83,NNW,327,0.0,2.0,98,0.00,,,0.00,VWS V14.01,2013-05-19 07:18:00,
2013-05-19 02:20:00,41.0,40.5,29.83,NNW,327,0.0,2.0,98,0.00,,,0.00,VWS V14.01,2013-05-19 07:20:00,
2013-05-19 02:23:00,41.1,40.6,29.83,NNW,327,0.0,2.0,98,0.00,,,0.00,VWS V14.01,2013-05-19 07:23:00,
2013-05-19 02:25:00,41.1,40.6,29.83,NNW,327,0.0,0.0,98,0.00,,,0.00,VWS V14.01,2013-05-19 07:25:00,
2013-05-19 02:28:00,41.1,40.6,29.83,NNW,327,0.0,0.0,98,0.00,,,0.00,VWS V14.01,2013-05-19 07:28:00,
2013-05-19 02:29:00,41.2,40.7,29.83,NNW,327,0.0,0.0,98,0.00,,,0.00,VWS V14.01,2013-05-19 07:29:00,
2013-05-19 02:30:00,41.2,40.7,29.83,NNW,327,0.0,0.0,98,0.00,,,0.00,VWS V14.01,2013-05-19 07:30:00,
2013-05-19 02:33:00,41.3,40.8,29.83,NNW,327,0.0,0.0,98,0.00,,,0.00,VWS V14.01,2013-05-19 07:33:00,
2013-05-19 02:34:00,41.3,40.8,29.83,NNW,327,0.0,0.0,98,0.00,,,0.00,VWS V14.01,2013-05-19 07:34:00,
2013-05-19 02:35:00,41.3,40.8,29.83,NNW,327,0.0,0.0,98,0.00,,,0.00,VWS V14.01,2013-05-19 07:35:00,
2013-05-19 02:36:00,41.3,40.8,29.83,NNW,327,0.0,0.0,98,0.00,,,0.00,VWS V14.01,2013-05-19 07:36:00,
2013-05-19 02:39:00,41.3,40.8,29.83,NNW,327,0.0,0.0,98,0.00,,,0.00,VWS V14.01,2013-05-19 07:39:00,
2013-05-19 02:40:00,41.4,40.9,29.83,NNW,327,0.0,0.0,98,0.00,,,0.00,VWS V14.01,2013-05-19 07:40:00,
2013-05-19 02:41:00,41.4,40.9,29.83,NNW,327,0.0,0.0,98,0.00,,,0.00,VWS V14.01,2013-05-19 07:41:00,
2013-05-19 02:44:00,41.4,40.9,29.82,NNW,327,0.0,0.0,98,0.00,,,0.00,VWS V14.01,2013-05-19 07:44:00,
2013-05-19 02:45:00,41.4,40.9,29.82,NNW,327,0.0,0.0,98,0.00,,,0.00,VWS V14.01,2013-05-19 07:45:00,
2013-05-19 02:46:00,41.5,41.0,29.82,NNW,327,0.0,0.0,98,0.00,,,0.00,VWS V14.01,2013-05-19 07:46:00,
2013-05-19 02:49:00,41.5,41.0,29.82,NNW,327,0.0,0.0,98,0.00,,,0.00,VWS V14.01,2013-05-19 07:49:00,
2013-05-19 02:50:00,41.5,41.0,29.82,NNW,327,0.0,0.0,98,0.00,,,0.00,VWS V14.01,2013-05-19 07:50:00,
2013-05-19 02:51:00,41.5,41.0,29.82,NNW,327,0.0,0.0,98,0.00,,,0.00,VWS V14.01,2013-05-19 07:51:00,
2013-05-19 02:52:00,41.5,41.0,29.82,NNW,327,0.0,0.0,98,0.00,,,0.00,VWS V14.01,2013-05-19 07:52:00,
2013-05-19 02:54:00,41.5,41.0,29.82,NNW,327,0.0,0.0,98,0.00,,,0.00,VWS V14.01,2013-05-19 07:54:00,
2013-05-19 02:55:00,41.6,41.1,29.82,NNW,327,0.0,0.0,98,0.00,,,0.00,VWS V14.01,2013-05-19 07:55:00,
2013-05-19 02:56:00,41.6,41.1,29.82,NNW,327,0.0,0.0,98,0.00,,,0.00,VWS V14.01,2013-05-19 07:56:00,
2013-05-19 02:57:00,41.6,41.1,29.82,NNW,327,0.0,0.0,98,0.00,,,0.00,VWS V14.01,2013-05-19 07:57:00,
2013-05-19 02:59:00,41.6,41.1,29.82,NNW,327,0.0,0.0,98,0.00,,,0.00,VWS V14.01,2013-05-19 07:59:00,
2013-05-19 03:00:00,41.6,41.1,29.82,NNW,327,0.0,0.0,98,0.00,,,0.00,VWS V14.01,2013-05-19 08:00:00,
2013-05-19 03:03:00,41.8,41.3,29.82,NNW,327,0.0,0.0,98,0.00,,,0.00,VWS V14.01,2013-05-19 08:03:00,
2013-05-19 03:04:00,41.8,41.3,29.83,NNW,327,0.0,0.0,98,0.00,,,0.00,VWS V14.01,2013-05-19 08:04:00,
2013-05-19 03:05:00,41.8,41.3,29.83,NNW,327,0.0,0.0,98,0.00,,,0.00,VWS V14.01,2013-05-19 08:05:00,
2013-05-19 03:08:00,41.9,41.4,29.83,NNW,327,0.0,0.0,98,0.00,,,0.00,VWS V14.01,2013-05-19 08:08:00,
2013-05-19 03:09:00,41.9,41.4,29.83,NNW,327,2.0,2.0,98,0.00,,,0.00,VWS V14.01,2013-05-19 08:09:00,
2013-05-19 03:10:00,41.9,41.4,29.83,NNW,327,1.0,3.0,98,0.00,,,0.00,VWS V14.01,2013-05-19 08:10:00,
2013-05-19 03:11:00,41.9,41.4,29.83,NNW,327,2.0,3.0,98,0.00,,,0.00,VWS V14.01,2013-05-19 08:11:00,
2013-05-19 03:13:00,42.0,41.5,29.83,NNW,327,0.0,3.0,98,0.00,,,0.00,VWS V14.01,2013-05-19 08:13:00,
2013-05-19 03:14:00,42.0,41.5,29.83,NNW,327,0.0,3.0,98,0.00,,,0.00,VWS V14.01,2013-05-19 08:14:00,
2013-05-19 03:15:00,42.0,41.5,29.83,NNW,327,0.0,3.0,98,0.00,,,0.00,VWS V14.01,2013-05-19 08:15:00,
2013-05-19 03:16:00,42.0,41.5,29.83,NNW,327,1.0,3.0,98,0.00,,,0.00,VWS V14.01,2013-05-19 08:16:00,
2013-05-19 03:18:00,42.1,41.6,29.83,NNW,327,0.0,3.0,98,0.00,,,0.00,VWS V14.01,2013-05-19 08:18:00,
2013-05-19 03:19:00,42.1,41.6,29.83,NNW,327,0.0,3.0,98,0.00,,,0.00,VWS V14.01,2013-05-19 08:19:00,
2013-05-19 03:20:00,42.2,41.7,29.83,NNW,327,2.0,3.0,98,0.00,,,0.00,VWS V14.01,2013-05-19 08:20:00,
2013-05-19 03:21:00,42.2,41.7,29.83,NNW,327,1.0,3.0,98,0.00,,,0.00,VWS V14.01,2013-05-19 08:21:00,
2013-05-19 03:23:00,42.3,41.8,29.83,NNW,327,2.0,4.0,98,0.00,,,0.00,VWS V14.01,2013-05-19 08:23:00,
2013-05-19 03:24:00,42.3,41.8,29.83,NNW,327,1.0,4.0,98,0.00,,,0.00,VWS V14.01,2013-05-19 08:24:00,
2013-05-19 03:25:00,42.3,41.8,29.83,NNW,327,0.0,4.0,98,0.00,,,0.00,VWS V14.01,2013-05-19 08:25:00,
2013-05-19 03:26:00,42.3,41.8,29.83,NNW,327,2.0,4.0,98,0.00,,,0.00,VWS V14.01,2013-05-19 08:26:00,
2013-05-19 03:29:00,42.4,41.9,29.83,NNW,327,0.0,4.0,98,0.00,,,0.00,VWS V14.01,2013-05-19 08:29:00,
2013-05-19 03:30:00,42.4,41.9,29.83,NNW,327,2.0,4.0,98,0.00,,,0.00,VWS V14.01,2013-05-19 08:30:00,
2013-05-19 03:31:00,42.4,41.9,29.83,NNW,327,0.0,4.0,98,0.00,,,0.00,VWS V14.01,2013-05-19 08:31:00,
2013-05-19 03:34:00,42.4,41.9,29.83,NNW,327,0.0,4.0,98,0.00,,,0.00,VWS V14.01,2013-05-19 08:34:00,
2013-05-19 03:35:00,42.5,42.0,29.83,NNW,327,0.0,4.0,98,0.00,,,0.00,VWS V14.01,2013-05-19 08:35:00,
2013-05-19 03:36:00,42.5,42.0,29.84,NNW,327,0.0,4.0,98,0.00,,,0.00,VWS V14.01,2013-05-19 08:36:00,
2013-05-19 03:37:00,42.5,42.0,29.84,NNW,327,0.0,4.0,98,0.00,,,0.00,VWS V14.01,2013-05-19 08:37:00,
2013-05-19 03:39:00,42.6,42.1,29.83,NNW,327,0.0,4.0,98,0.00,,,0.00,VWS V14.01,2013-05-19 08:39:00,
2013-05-19 03:40:00,42.6,42.1,29.84,NNW,327,0.0,4.0,98,0.00,,,0.00,VWS V14.01,2013-05-19 08:40:00,
2013-05-19 03:41:00,42.7,42.2,29.84,NNW,327,0.0,4.0,98,0.00,,,0.00,VWS V14.01,2013-05-19 08:41:00,
2013-05-19 03:42:00,42.7,42.2,29.84,NNW,327,0.0,4.0,98,0.00,,,0.00,VWS V14.01,2013-05-19 08:42:00,
2013-05-19 03:44:00,42.8,42.3,29.84,NNW,327,1.0,4.0,98,0.00,,,0.00,VWS V14.01,2013-05-19 08:44:00,
2013-05-19 03:45:00,42.7,42.2,29.84,NNW,327,0.0,4.0,98,0.00,,,0.00,VWS V14.01,2013-05-19 08:45:00,
2013-05-19 03:46:00,42.8,42.3,29.84,NNW,327,0.0,4.0,98,0.00,,,0.00,VWS V14.01,2013-05-19 08:46:00,
2013-05-19 03:47:00,42.8,42.3,29.84,NNW,327,1.0,4.0,98,0.00,,,0.00,VWS V14.01,2013-05-19 08:47:00,
2013-05-19 03:49:00,42.8,42.3,29.84,NNW,327,0.0,4.0,98,0.00,,,0.00,VWS V14.01,2013-05-19 08:49:00,
2013-05-19 03:50:00,42.8,42.3,29.84,NNW,327,0.0,4.0,98,0.00,,,0.00,VWS V14.01,2013-05-19 08:50:00,
2013-05-19 03:52:00,42.9,42.4,29.84,NNW,327,0.0,4.0,98,0.00,,,0.00,VWS V14.01,2013-05-19 08:52:00,
2013-05-19 03:54:00,42.9,42.4,29.84,NNW,327,1.0,3.0,98,0.00,,,0.00,VWS V14.01,2013-05-19 08:54:00,
2013-05-19 03:55:00,42.9,42.4,29.84,NNW,327,0.0,3.0,98,0.00,,,0.00,VWS V14.01,2013-05-19 08:55:00,
2013-05-19 03:57:00,42.9,42.4,29.84,NNW,327,0.0,3.0,98,0.00,,,0.00,VWS V14.01,2013-05-19 08:57:00,
2013-05-19 03:59:00,43.0,42.5,29.84,NNW,327,0.0,3.0,98,0.00,,,0.00,VWS V14.01,2013-05-19 08:59:00,
2013-05-19 04:00:00,43.0,42.7,29.84,NNW,327,0.0,3.0,99,0.00,,,0.00,VWS V14.01,2013-05-19 09:00:00,
2013-05-19 04:02:00,43.0,42.7,29.84,NNW,327,0.0,3.0,99,0.00,,,0.00,VWS V14.01,2013-05-19 09:02:00,
2013-05-19 04:04:00,43.0,42.5,29.84,NNW,327,0.0,3.0,98,0.00,,,0.00,VWS V14.01,2013-05-19 09:04:00,
2013-05-19 04:05:00,43.0,42.7,29.84,NNW,327,0.0,3.0,99,0.00,,,0.00,VWS V14.01,2013-05-19 09:05:00,
2013-05-19 04:07:00,43.0,42.5,29.83,NNW,327,1.0,3.0,98,0.00,,,0.00,VWS V14.01,2013-05-19 09:07:00,
2013-05-19 04:08:00,43.0,42.5,29.84,NNW,327,0.0,3.0,98,0.00,,,0.00,VWS V14.01,2013-05-19 09:08:00,
2013-05-19 04:10:00,43.0,42.5,29.83,NNW,327,2.0,3.0,98,0.00,,,0.00,VWS V14.01,2013-05-19 09:10:00,
2013-05-19 04:12:00,42.9,42.4,29.83,NNW,327,2.0,4.0,98,0.00,,,0.00,VWS V14.01,2013-05-19 09:12:00,
2013-05-19 04:13:00,42.9,42.4,29.83,NNW,327,2.0,4.0,98,0.00,,,0.00,VWS V14.01,2013-05-19 09:13:00,
2013-05-19 04:15:00,42.9,42.4,29.83,NNW,327,2.0,4.0,98,0.00,,,0.00,VWS V14.01,2013-05-19 09:15:00,
2013-05-19 04:16:00,42.8,42.3,29.83,NNW,327,2.0,4.0,98,0.00,,,0.00,VWS V14.01,2013-05-19 09:16:00,
2013-05-19 04:17:00,42.8,42.3,29.84,NNW,327,1.0,4.0,98,0.00,,,0.00,VWS V14.01,2013-05-19 09:17:00,
2013-05-19 04:18:00,42.8,42.3,29.84,NNW,327,1.0,4.0,98,0.00,,,0.00,VWS V14.01,2013-05-19 09:18:00,
2013-05-19 04:20:00,42.7,42.2,29.84,NNW,327,0.0,4.0,98,0.00,,,0.00,VWS V14.01,2013-05-19 09:20:00,
2013-05-19 04:21:00,42.7,42.2,29.84,NNW,327,0.0,4.0,98,0.00,,,0.00,VWS V14.01,2013-05-19 09:21:00,
2013-05-19 04:23:00,42.7,42.2,29.84,NNW,327,0.0,4.0,98,0.00,,,0.00,VWS V14.01,2013-05-19 09:23:00,
2013-05-19 04:24:00,42.7,42.2,29.84,NNW,327,2.0,2.0,98,0.00,,,0.00,VWS V14.01,2013-05-19 09:24:00,
2013-05-19 04:25:00,42.7,42.2,29.84,NNW,327,0.0,2.0,98,0.00,,,0.00,VWS V14.01,2013-05-19 09:25:00,
2013-05-19 04:26:00,42.6,42.1,29.84,NNW,327,2.0,3.0,98,0.00,,,0.00,VWS V14.01,2013-05-19 09:26:00,
2013-05-19 04:28:00,42.6,42.1,29.84,NNW,327,0.0,4.0,98,0.00,,,0.00,VWS V14.01,2013-05-19 09:28:00,
2013-05-19 04:29:00,42.6,42.1,29.84,NNW,327,0.0,4.0,98,0.00,,,0.00,VWS V14.01,2013-05-19 09:29:00,
2013-05-19 04:30:00,42.6,42.1,29.84,NNW,327,0.0,4.0,98,0.00,,,0.00,VWS V14.01,2013-05-19 09:30:00,
2013-05-19 04:31:00,42.6,42.1,29.84,NNW,327,1.0,4.0,98,0.00,,,0.00,VWS V14.01,2013-05-19 09:31:00,
2013-05-19 04:33:00,42.6,42.1,29.84,NNW,327,0.0,4.0,98,0.00,,,0.00,VWS V14.01,2013-05-19 09:33:00,
2013-05-19 04:34:00,42.6,42.1,29.84,NNW,327,1.0,4.0,98,0.00,,,0.00,VWS V14.01,2013-05-19 09:34:00,
2013-05-19 04:35:00,42.5,42.0,29.84,NNW,327,1.0,4.0,98,0.00,,,0.00,VWS V14.01,2013-05-19 09:35:00,
2013-05-19 04:36:00,42.5,42.0,29.84,NNW,327,1.0,4.0,98,0.00,,,0.00,VWS V14.01,2013-05-19 09:36:00,
2013-05-19 04:38:00,42.5,42.0,29.83,NNW,327,1.0,4.0,98,0.00,,,0.00,VWS V14.01,2013-05-19 09:38:00,
2013-05-19 04:39:00,42.5,42.0,29.83,NNW,327,4.0,5.0,98,0.00,,,0.00,VWS V14.01,2013-05-19 09:39:00,
2013-05-19 04:40:00,42.5,42.0,29.83,NNW,327,0.0,5.0,98,0.00,,,0.00,VWS V14.01,2013-05-19 09:40:00,
2013-05-19 04:41:00,42.4,41.9,29.83,NNW,327,0.0,5.0,98,0.00,,,0.00,VWS V14.01,2013-05-19 09:41:00,
2013-05-19 04:43:00,42.4,41.9,29.83,NNW,327,2.0,5.0,98,0.00,,,0.00,VWS V14.01,2013-05-19 09:43:00,
2013-05-19 04:44:00,42.4,41.9,29.83,NNW,327,0.0,5.0,98,0.00,,,0.00,VWS V14.01,2013-05-19 09:44:00,
2013-05-19 04:46:00,42.4,41.9,29.83,NNW,327,0.0,5.0,98,0.00,,,0.00,VWS V14.01,2013-05-19 09:46:00,
2013-05-19 04:47:00,42.4,41.9,29.83,NNW,327,0.0,5.0,98,0.00,,,0.00,VWS V14.01,2013-05-19 09:47:00,
2013-05-19 04:48:00,42.4,41.9,29.83,NNW,327,0.0,5.0,98,0.00,,,0.00,VWS V14.01,2013-05-19 09:48:00,
2013-05-19 04:49:00,42.4,41.9,29.83,NNW,327,0.0,5.0,98,0.00,,,0.00,VWS V14.01,2013-05-19 09:49:00,
2013-05-19 04:50:00,42.4,41.9,29.83,NNW,327,0.0,5.0,98,0.00,,,0.00,VWS V14.01,2013-05-19 09:50:00,
2013-05-19 04:51:00,42.3,41.8,29.83,NNW,327,0.0,5.0,98,0.00,,,0.00,VWS V14.01,2013-05-19 09:51:00,
2013-05-19 04:52:00,42.3,41.8,29.83,NNW,327,0.0,5.0,98,0.00,,,0.00,VWS V14.01,2013-05-19 09:52:00,
2013-05-19 04:53:00,42.3,41.8,29.83,NNW,327,0.0,5.0,98,0.00,,,0.00,VWS V14.01,2013-05-19 09:53:00,
2013-05-19 04:54:00,42.3,41.8,29.83,NNW,327,0.0,0.0,98,0.00,,,0.00,VWS V14.01,2013-05-19 09:54:00,
2013-05-19 04:55:00,42.3,41.8,29.83,NNW,327,0.0,0.0,98,0.00,,,0.00,VWS V14.01,2013-05-19 09:55:00,
2013-05-19 04:56:00,42.3,41.8,29.83,NNW,327,0.0,0.0,98,0.00,,,0.00,VWS V14.01,2013-05-19 09:56:00,
2013-05-19 04:57:00,42.3,41.8,29.83,NNW,327,0.0,0.0,98,0.00,,,0.00,VWS V14.01,2013-05-19 09:57:00,
2013-05-19 04:59:00,42.3,41.8,29.82,NNW,327,0.0,0.0,98,0.00,,,0.00,VWS V14.01,2013-05-19 09:59:00,
2013-05-19 05:00:00,42.3,41.8,29.82,NNW,327,0.0,0.0,98,0.00,,,0.00,VWS V14.01,2013-05-19 10:00:00,
2013-05-19 05:01:00,42.3,41.8,29.82,NNW,327,0.0,0.0,98,0.00,,,0.00,VWS V14.01,2013-05-19 10:01:00,
2013-05-19 05:02:00,42.3,41.8,29.83,NNW,327,0.0,0.0,98,0.00,,,0.00,VWS V14.01,2013-05-19 10:02:00,
2013-05-19 05:04:00,42.3,41.8,29.82,NNW,327,0.0,0.0,98,0.00,,,0.00,VWS V14.01,2013-05-19 10:04:00,
2013-05-19 05:05:00,42.3,41.8,29.82,NNW,327,0.0,0.0,98,0.00,,,0.00,VWS V14.01,2013-05-19 10:05:00,
2013-05-19 05:07:00,42.3,41.8,29.82,NNW,327,0.0,0.0,98,0.00,,,0.00,VWS V14.01,2013-05-19 10:07:00,
2013-05-19 05:09:00,42.3,41.8,29.82,NNW,327,0.0,0.0,98,0.00,,,0.00,VWS V14.01,2013-05-19 10:09:00,
2013-05-19 05:10:00,42.3,41.8,29.82,NNW,327,0.0,0.0,98,0.00,,,0.00,VWS V14.01,2013-05-19 10:10:00,
2013-05-19 05:12:00,42.3,41.8,29.81,NNW,327,0.0,2.0,98,0.00,,,0.00,VWS V14.01,2013-05-19 10:12:00,
2013-05-19 05:15:00,42.3,41.8,29.81,NNW,327,1.0,2.0,98,0.00,,,0.00,VWS V14.01,2013-05-19 10:15:00,
2013-05-19 05:17:00,42.3,41.8,29.81,NNW,327,0.0,2.0,98,0.00,,,0.00,VWS V14.01,2013-05-19 10:17:00,
2013-05-19 05:20:00,42.3,41.8,29.81,NNW,327,0.0,2.0,98,0.00,,,0.00,VWS V14.01,2013-05-19 10:20:00,
2013-05-19 05:22:00,42.3,41.8,29.81,NNW,327,0.0,2.0,98,0.00,,,0.00,VWS V14.01,2013-05-19 10:22:00,
2013-05-19 05:25:00,42.3,41.8,29.81,NNW,327,0.0,0.0,98,0.00,,,0.00,VWS V14.01,2013-05-19 10:25:00,
2013-05-19 05:28:00,42.3,41.8,29.81,NNW,327,0.0,0.0,98,0.00,,,0.00,VWS V14.01,2013-05-19 10:28:00,
2013-05-19 05:30:00,42.3,41.8,29.80,NNW,327,0.0,0.0,98,0.00,,,0.00,VWS V14.01,2013-05-19 10:30:00,
2013-05-19 05:33:00,42.3,41.8,29.80,NNW,327,0.0,0.0,98,0.00,,,0.00,VWS V14.01,2013-05-19 10:33:00,
2013-05-19 05:35:00,42.3,41.8,29.80,NNW,327,0.0,0.0,98,0.00,,,0.00,VWS V14.01,2013-05-19 10:35:00,
2013-05-19 05:36:00,42.3,41.8,29.80,NNW,327,0.0,0.0,98,0.00,,,0.00,VWS V14.01,2013-05-19 10:36:00,
2013-05-19 05:38:00,42.3,41.8,29.80,NNW,327,0.0,0.0,98,0.00,,,0.00,VWS V14.01,2013-05-19 10:38:00,
2013-05-19 05:40:00,42.2,41.7,29.80,NNW,327,1.0,2.0,98,0.00,,,0.00,VWS V14.01,2013-05-19 10:40:00,
2013-05-19 05:41:00,42.2,41.7,29.79,NNW,327,1.0,2.0,98,0.00,,,0.00,VWS V14.01,2013-05-19 10:41:00,
2013-05-19 05:43:00,42.1,41.6,29.79,NNW,327,2.0,3.0,98,0.00,,,0.00,VWS V14.01,2013-05-19 10:43:00,
2013-05-19 05:44:00,42.1,41.6,29.80,NNW,327,3.0,3.0,98,0.00,,,0.00,VWS V14.01,2013-05-19 10:44:00,
2013-05-19 05:45:00,42.1,41.6,29.80,NNW,327,4.0,4.0,98,0.00,,,0.00,VWS V14.01,2013-05-19 10:45:00,
2013-05-19 05:46:00,42.1,41.6,29.80,NNW,327,4.0,5.0,98,0.00,,,0.00,VWS V14.01,2013-05-19 10:46:00,
2013-05-19 05:48:00,42.0,41.5,29.80,NNW,327,4.0,5.0,98,0.00,,,0.00,VWS V14.01,2013-05-19 10:48:00,
2013-05-19 05:49:00,42.0,41.5,29.80,NNW,327,4.0,5.0,98,0.00,,,0.00,VWS V14.01,2013-05-19 10:49:00,
2013-05-19 05:50:00,42.0,41.5,29.80,NNW,327,2.0,5.0,98,0.00,,,0.00,VWS V14.01,2013-05-19 10:50:00,
2013-05-19 05:51:00,42.0,41.5,29.80,NNW,327,2.0,5.0,98,0.00,,,0.00,VWS V14.01,2013-05-19 10:51:00,
2013-05-19 05:54:00,42.0,41.5,29.79,NNW,327,1.0,2.0,98,0.00,,,0.00,VWS V14.01,2013-05-19 10:54:00,
2013-05-19 05:55:00,42.0,41.5,29.79,NNW,327,1.0,2.0,98,0.00,,,0.00,VWS V14.01,2013-05-19 10:55:00,
2013-05-19 05:56:00,42.0,41.5,29.79,NNW,327,1.0,2.0,98,0.00,,,0.00,VWS V14.01,2013-05-19 10:56:00,
2013-05-19 05:57:00,42.0,41.5,29.79,NNW,327,2.0,2.0,98,0.00,,,0.00,VWS V14.01,2013-05-19 10:57:00,
2013-05-19 05:59:00,42.0,41.5,29.79,NNW,327,2.0,3.0,98,0.00,,,0.00,VWS V14.01,2013-05-19 10:59:00,
2013-05-19 06:00:00,42.1,41.6,29.79,NNW,327,0.0,3.0,98,0.00,,,0.00,VWS V14.01,2013-05-19 11:00:00,
2013-05-19 06:02:00,42.2,41.7,29.79,NNW,327,5.0,5.0,98,0.00,,,0.00,VWS V14.01,2013-05-19 11:02:00,
2013-05-19 06:04:00,42.2,41.7,29.79,NNW,327,5.0,5.0,98,0.00,,,0.00,VWS V14.01,2013-05-19 11:04:00,
2013-05-19 06:05:00,42.1,41.6,29.79,NNW,327,1.0,5.0,98,0.00,,,0.00,VWS V14.01,2013-05-19 11:05:00,
2013-05-19 06:07:00,42.1,41.6,29.79,NNW,327,2.0,5.0,98,0.00,,,0.00,VWS V14.01,2013-05-19 11:07:00,
2013-05-19 06:09:00,41.9,41.4,29.79,NNW,327,4.0,5.0,98,0.00,,,0.00,VWS V14.01,2013-05-19 11:09:00,
2013-05-19 06:10:00,41.9,41.4,29.79,NNW,327,4.0,5.0,98,0.00,,,0.00,VWS V14.01,2013-05-19 11:10:00,
2013-05-19 06:12:00,41.8,41.3,29.79,NNW,327,5.0,5.0,98,0.00,,,0.00,VWS V14.01,2013-05-19 11:12:00,
2013-05-19 06:13:00,41.8,41.3,29.78,NNW,327,1.0,6.0,98,0.00,,,0.00,VWS V14.01,2013-05-19 11:13:00,
2013-05-19 06:15:00,41.8,41.3,29.79,NNW,327,5.0,6.0,98,0.00,,,0.00,VWS V14.01,2013-05-19 11:15:00,
2013-05-19 06:17:00,41.6,41.1,29.79,NNW,327,1.0,6.0,98,0.00,,,0.00,VWS V14.01,2013-05-19 11:17:00,
2013-05-19 06:18:00,41.6,41.1,29.79,NNW,327,2.0,6.0,98,0.00,,,0.00,VWS V14.01,2013-05-19 11:18:00,
2013-05-19 06:20:00,41.5,41.0,29.79,NNW,327,3.0,6.0,98,0.00,,,0.00,VWS V14.01,2013-05-19 11:20:00,
2013-05-19 06:22:00,41.5,41.0,29.79,NNW,327,2.0,6.0,98,0.00,,,0.00,VWS V14.01,2013-05-19 11:22:00,
2013-05-19 06:23:00,41.4,40.9,29.79,NNW,327,1.0,6.0,98,0.00,,,0.00,VWS V14.01,2013-05-19 11:23:00,
2013-05-19 06:25:00,41.4,40.9,29.79,NNW,327,2.0,2.0,98,0.00,,,0.00,VWS V14.01,2013-05-19 11:25:00,
2013-05-19 06:27:00,41.4,40.9,29.79,NNW,327,1.0,2.0,98,0.00,,,0.00,VWS V14.01,2013-05-19 11:27:00,
2013-05-19 06:29:00,41.4,40.9,29.79,NNW,327,0.0,2.0,98,0.00,,,0.00,VWS V14.01,2013-05-19 11:29:00,
2013-05-19 06:30:00,41.4,40.9,29.79,NNW,327,1.0,2.0,98,0.00,,,0.00,VWS V14.01,2013-05-19 11:30:00,
2013-05-19 06:31:00,41.4,40.9,29.79,NNW,327,2.0,2.0,98,0.00,,,0.00,VWS V14.01,2013-05-19 11:31:00,
2013-05-19 06:32:00,41.4,40.9,29.79,NNW,327,2.0,4.0,98,0.00,,,0.00,VWS V14.01,2013-05-19 11:32:00,
2013-05-19 06:34:00,41.5,41.0,29.80,NNW,327,2.0,4.0,98,0.00,,,0.00,VWS V14.01,2013-05-19 11:34:00,
2013-05-19 06:35:00,41.5,41.0,29.80,NNW,327,1.0,4.0,98,0.00,,,0.00,VWS V14.01,2013-05-19 11:35:00,
2013-05-19 06:36:00,41.5,41.0,29.80,NNW,327,1.0,4.0,98,0.00,,,0.00,VWS V14.01,2013-05-19 11:36:00,
2013-05-19 06:38:00,41.5,41.0,29.80,NNW,327,2.0,4.0,98,0.00,,,0.00,VWS V14.01,2013-05-19 11:38:00,
2013-05-19 06:39:00,41.6,41.1,29.80,NNW,327,1.0,4.0,98,0.00,,,0.00,VWS V14.01,2013-05-19 11:39:00,
2013-05-19 06:40:00,41.6,41.1,29.80,NNW,327,1.0,4.0,98,0.00,,,0.00,VWS V14.01,2013-05-19 11:40:00,
2013-05-19 06:41:00,41.6,41.1,29.80,NNW,327,2.0,4.0,98,0.00,,,0.00,VWS V14.01,2013-05-19 11:41:00,
2013-05-19 06:43:00,41.7,41.2,29.80,NNW,327,0.0,4.0,98,0.00,,,0.00,VWS V14.01,2013-05-19 11:43:00,
2013-05-19 06:44:00,41.7,41.2,29.80,NNW,327,1.0,4.0,98,0.00,,,0.00,VWS V14.01,2013-05-19 11:44:00,
2013-05-19 06:45:00,41.8,41.3,29.80,NNW,327,2.0,4.0,98,0.00,,,0.00,VWS V14.01,2013-05-19 11:45:00,
2013-05-19 06:46:00,41.8,41.3,29.80,NNW,327,2.0,4.0,98,0.00,,,0.00,VWS V14.01,2013-05-19 11:46:00,
2013-05-19 06:48:00,41.9,41.4,29.81,NNW,327,1.0,4.0,98,0.00,,,0.00,VWS V14.01,2013-05-19 11:48:00,
2013-05-19 06:49:00,41.9,41.4,29.81,NNW,327,2.0,4.0,98,0.00,,,0.00,VWS V14.01,2013-05-19 11:49:00,
2013-05-19 06:50:00,41.9,41.6,29.81,NNW,327,1.0,4.0,99,0.00,,,0.00,VWS V14.01,2013-05-19 11:50:00,
2013-05-19 06:51:00,42.0,41.7,29.81,NNW,327,0.0,4.0,99,0.00,,,0.00,VWS V14.01,2013-05-19 11:51:00,
2013-05-19 06:53:00,42.1,41.8,29.81,NNW,327,1.0,4.0,99,0.00,,,0.00,VWS V14.01,2013-05-19 11:53:00,
2013-05-19 06:55:00,42.2,41.9,29.81,NNW,327,1.0,2.0,99,0.00,,,0.00,VWS V14.01,2013-05-19 11:55:00,
2013-05-19 06:56:00,42.2,41.9,29.81,NNW,327,2.0,2.0,99,0.00,,,0.00,VWS V14.01,2013-05-19 11:56:00,
2013-05-19 06:57:00,42.2,41.9,29.80,NNW,327,3.0,3.0,99,0.00,,,0.00,VWS V14.01,2013-05-19 11:57:00,
2013-05-19 06:59:00,42.3,41.8,29.80,NNW,327,5.0,5.0,98,0.00,,,0.00,VWS V14.01,2013-05-19 11:59:00,
2013-05-19 07:00:00,42.3,41.8,29.80,NNW,327,2.0,5.0,98,0.00,,,0.00,VWS V14.01,2013-05-19 12:00:00,
2013-05-19 07:01:00,42.4,41.9,29.81,NNW,327,1.0,5.0,98,0.00,,,0.00,VWS V14.01,2013-05-19 12:01:00,
2013-05-19 07:02:00,42.4,41.9,29.81,NNW,327,0.0,5.0,98,0.00,,,0.00,VWS V14.01,2013-05-19 12:02:00,
2013-05-19 07:04:00,42.5,42.0,29.81,NNW,327,2.0,5.0,98,0.00,,,0.00,VWS V14.01,2013-05-19 12:04:00,
2013-05-19 07:05:00,42.5,42.0,29.81,NNW,327,4.0,5.0,98,0.00,,,0.00,VWS V14.01,2013-05-19 12:05:00,
2013-05-19 07:06:00,42.5,42.2,29.81,NNW,327,4.0,5.0,99,0.00,,,0.00,VWS V14.01,2013-05-19 12:06:00,
2013-05-19 07:07:00,42.5,42.2,29.81,NNW,327,4.0,5.0,99,0.00,,,0.00,VWS V14.01,2013-05-19 12:07:00,
2013-05-19 07:09:00,42.5,42.2,29.81,NNW,327,4.0,5.0,99,0.00,,,0.00,VWS V14.01,2013-05-19 12:09:00,
2013-05-19 07:10:00,42.5,42.0,29.81,NNW,327,5.0,6.0,98,0.00,,,0.00,VWS V14.01,2013-05-19 12:10:00,
2013-05-19 07:12:00,42.5,42.0,29.81,NNW,328,2.0,6.0,98,0.00,,,0.00,VWS V14.01,2013-05-19 12:12:00,
2013-05-19 07:14:00,42.5,42.0,29.82,NNW,328,2.0,6.0,98,0.00,,,0.00,VWS V14.01,2013-05-19 12:14:00,
2013-05-19 07:16:00,42.5,42.0,29.82,NNW,328,1.0,6.0,98,0.00,,,0.00,VWS V14.01,2013-05-19 12:16:00,
2013-05-19 07:17:00,42.5,42.0,29.82,NNW,328,1.0,6.0,98,0.00,,,0.00,VWS V14.01,2013-05-19 12:17:00,
2013-05-19 07:18:00,42.5,42.2,29.83,NNW,328,1.0,6.0,99,0.00,,,0.00,VWS V14.01,2013-05-19 12:18:00,
2013-05-19 07:19:00,42.6,42.3,29.83,NNW,328,0.0,6.0,99,0.00,,,0.00,VWS V14.01,2013-05-19 12:19:00,
2013-05-19 07:21:00,42.7,42.4,29.83,NNW,328,0.0,6.0,99,0.00,,,0.00,VWS V14.01,2013-05-19 12:21:00,
2013-05-19 07:22:00,42.7,42.4,29.83,NNW,328,0.0,6.0,99,0.00,,,0.00,VWS V14.01,2013-05-19 12:22:00,
2013-05-19 07:23:00,42.7,42.4,29.83,NNW,328,0.0,6.0,99,0.00,,,0.00,VWS V14.01,2013-05-19 12:23:00,
2013-05-19 07:24:00,42.7,42.4,29.82,NNW,328,4.0,4.0,99,0.00,,,0.00,VWS V14.01,2013-05-19 12:24:00,
2013-05-19 07:26:00,42.8,42.5,29.82,NNW,328,2.0,4.0,99,0.00,,,0.00,VWS V14.01,2013-05-19 12:26:00,
2013-05-19 07:27:00,42.9,42.6,29.81,NNW,328,4.0,4.0,99,0.00,,,0.00,VWS V14.01,2013-05-19 12:27:00,
2013-05-19 07:28:00,42.9,42.6,29.81,NNW,328,2.0,4.0,99,0.00,,,0.00,VWS V14.01,2013-05-19 12:28:00,
2013-05-19 07:29:00,43.0,42.5,29.81,NNW,334,4.0,4.0,98,0.00,,,0.00,VWS V14.01,2013-05-19 12:29:00,
2013-05-19 07:32:00,43.0,42.5,29.82,NNW,334,4.0,4.0,98,0.00,,,0.00,VWS V14.01,2013-05-19 12:32:00,
2013-05-19 07:33:00,43.1,42.8,29.81,NNW,334,1.0,4.0,99,0.00,,,0.00,VWS V14.01,2013-05-19 12:33:00,
2013-05-19 07:35:00,43.1,42.6,29.81,NNW,334,1.0,5.0,98,0.00,,,0.00,VWS V14.01,2013-05-19 12:35:00,
2013-05-19 07:37:00,43.2,42.9,29.81,NNW,334,3.0,5.0,99,0.00,,,0.00,VWS V14.01,2013-05-19 12:37:00,
2013-05-19 07:38:00,43.2,42.9,29.81,NNW,334,2.0,5.0,99,0.00,,,0.00,VWS V14.01,2013-05-19 12:38:00,
2013-05-19 07:40:00,43.2,42.9,29.81,NNW,334,3.0,5.0,99,0.00,,,0.00,VWS V14.01,2013-05-19 12:40:00,
2013-05-19 07:42:00,43.3,43.0,29.81,NNW,334,0.0,6.0,99,0.00,,,0.00,VWS V14.01,2013-05-19 12:42:00,
2013-05-19 07:43:00,43.3,43.0,29.81,NNW,334,1.0,6.0,99,0.00,,,0.00,VWS V14.01,2013-05-19 12:43:00,
2013-05-19 07:44:00,43.3,43.0,29.81,NNW,334,1.0,6.0,99,0.00,,,0.00,VWS V14.01,2013-05-19 12:44:00,
2013-05-19 07:45:00,43.3,43.0,29.81,NNW,334,1.0,6.0,99,0.00,,,0.00,VWS V14.01,2013-05-19 12:45:00,
2013-05-19 07:48:00,43.4,43.1,29.81,NNW,334,1.0,6.0,99,0.00,,,0.00,VWS V14.01,2013-05-19 12:48:00,
2013-05-19 07:49:00,43.4,43.1,29.81,NNW,334,4.0,6.0,99,0.00,,,0.00,VWS V14.01,2013-05-19 12:49:00,
2013-05-19 07:51:00,43.4,43.1,29.81,NNW,334,4.0,6.0,99,0.00,,,0.00,VWS V14.01,2013-05-19 12:51:00,
2013-05-19 07:53:00,43.4,43.1,29.81,NNW,334,4.0,6.0,99,0.00,,,0.00,VWS V14.01,2013-05-19 12:53:00,
2013-05-19 07:54:00,43.4,43.1,29.80,NNW,334,4.0,5.0,99,0.00,,,0.00,VWS V14.01,2013-05-19 12:54:00,
2013-05-19 07:57:00,43.5,43.2,29.80,NNW,334,6.0,6.0,99,0.00,,,0.00,VWS V14.01,2013-05-19 12:57:00,
2013-05-19 07:58:00,43.5,43.2,29.80,NNW,334,6.0,6.0,99,0.00,,,0.00,VWS V14.01,2013-05-19 12:58:00,
2013-05-19 07:59:00,43.4,43.1,29.80,NNW,334,5.0,7.0,99,0.00,,,0.00,VWS V14.01,2013-05-19 12:59:00,
2013-05-19 08:02:00,43.4,43.1,29.81,NNW,334,1.0,7.0,99,0.00,,,0.00,VWS V14.01,2013-05-19 13:02:00,
2013-05-19 08:03:00,43.4,43.1,29.81,NNW,334,4.0,7.0,99,0.00,,,0.00,VWS V14.01,2013-05-19 13:03:00,
2013-05-19 08:04:00,43.4,43.1,29.81,NNW,334,4.0,7.0,99,0.00,,,0.00,VWS V14.01,2013-05-19 13:04:00,
2013-05-19 08:08:00,43.6,43.3,29.81,NNW,334,4.0,7.0,99,0.00,,,0.00,VWS V14.01,2013-05-19 13:08:00,
2013-05-19 08:09:00,43.5,43.2,29.81,NNW,334,2.0,7.0,99,0.00,,,0.00,VWS V14.01,2013-05-19 13:09:00,
2013-05-19 08:13:00,43.5,43.2,29.81,NNW,334,5.0,7.0,99,0.00,,,0.00,VWS V14.01,2013-05-19 13:13:00,
2013-05-19 08:15:00,43.5,43.2,29.81,NNW,334,6.0,7.0,99,0.00,,,0.00,VWS V14.01,2013-05-19 13:15:00,
2013-05-19 08:17:00,43.4,43.1,29.82,NNW,334,6.0,7.0,99,0.00,,,0.00,VWS V14.01,2013-05-19 13:17:00,
2013-05-19 08:18:00,43.4,43.1,29.82,NNW,334,5.0,7.0,99,0.00,,,0.00,VWS V14.01,2013-05-19 13:18:00,
2013-05-19 08:19:00,43.4,43.1,29.82,NNW,334,2.0,7.0,99,0.00,,,0.00,VWS V14.01,2013-05-19 13:19:00,
2013-05-19 08:20:00,43.4,43.1,29.82,NNW,334,4.0,7.0,99,0.00,,,0.00,VWS V14.01,2013-05-19 13:20:00,
2013-05-19 08:21:00,43.4,43.1,29.82,NNW,334,4.0,7.0,99,0.00,,,0.00,VWS V14.01,2013-05-19 13:21:00,
2013-05-19 08:22:00,43.4,43.1,29.82,NNW,334,4.0,7.0,99,0.00,,,0.00,VWS V14.01,2013-05-19 13:22:00,
2013-05-19 08:23:00,43.4,43.1,29.81,NNW,334,4.0,7.0,99,0.00,,,0.00,VWS V14.01,2013-05-19 13:23:00,
2013-05-19 08:24:00,43.4,43.1,29.81,NNW,334,4.0,4.0,99,0.00,,,0.00,VWS V14.01,2013-05-19 13:24:00,
2013-05-19 08:26:00,43.4,43.1,29.82,NNW,334,4.0,4.0,99,0.00,,,0.00,VWS V14.01,2013-05-19 13:26:00,
2013-05-19 08:28:00,43.4,43.1,29.82,NNW,334,4.0,4.0,99,0.00,,,0.00,VWS V14.01,2013-05-19 13:28:00,
2013-05-19 08:29:00,43.4,43.1,29.82,NNW,334,4.0,4.0,99,0.00,,,0.00,VWS V14.01,2013-05-19 13:29:00,
2013-05-19 08:31:00,43.4,43.1,29.82,NNW,334,4.0,5.0,99,0.00,,,0.00,VWS V14.01,2013-05-19 13:31:00,
2013-05-19 08:33:00,43.4,43.1,29.82,NNW,334,1.0,5.0,99,0.00,,,0.00,VWS V14.01,2013-05-19 13:33:00,
2013-05-19 08:34:00,43.5,43.2,29.82,NNW,334,2.0,5.0,99,0.00,,,0.00,VWS V14.01,2013-05-19 13:34:00,
2013-05-19 08:36:00,43.5,43.2,29.82,NNW,334,1.0,5.0,99,0.00,,,0.00,VWS V14.01,2013-05-19 13:36:00,
2013-05-19 08:37:00,43.5,43.2,29.83,NNW,334,2.0,5.0,99,0.00,,,0.00,VWS V14.01,2013-05-19 13:37:00,
2013-05-19 08:38:00,43.4,43.1,29.82,NNW,334,0.0,5.0,99,0.00,,,0.00,VWS V14.01,2013-05-19 13:38:00,
2013-05-19 08:39:00,43.4,43.1,29.82,NNW,334,1.0,5.0,99,0.00,,,0.00,VWS V14.01,2013-05-19 13:39:00,
2013-05-19 08:41:00,43.4,43.1,29.82,NNW,334,0.0,5.0,99,0.00,,,0.00,VWS V14.01,2013-05-19 13:41:00,
2013-05-19 08:42:00,43.4,43.1,29.82,NNW,334,0.0,5.0,99,0.00,,,0.00,VWS V14.01,2013-05-19 13:42:00,
2013-05-19 08:44:00,43.4,43.1,29.82,NNW,334,1.0,5.0,99,0.00,,,0.00,VWS V14.01,2013-05-19 13:44:00,
2013-05-19 08:45:00,43.3,43.0,29.81,NNW,334,1.0,5.0,99,0.00,,,0.00,VWS V14.01,2013-05-19 13:45:00,
2013-05-19 08:46:00,43.4,43.1,29.82,NNW,334,0.0,5.0,99,0.00,,,0.00,VWS V14.01,2013-05-19 13:46:00,
2013-05-19 08:47:00,43.4,43.1,29.82,NNW,334,0.0,5.0,99,0.00,,,0.00,VWS V14.01,2013-05-19 13:47:00,
2013-05-19 08:49:00,43.3,43.0,29.82,NNW,334,0.0,5.0,99,0.00,,,0.00,VWS V14.01,2013-05-19 13:49:00,
2013-05-19 08:50:00,43.3,43.0,29.82,NNW,334,2.0,5.0,99,0.00,,,0.00,VWS V14.01,2013-05-19 13:50:00,
2013-05-19 08:52:00,43.3,43.0,29.82,NNW,334,0.0,5.0,99,0.00,,,0.00,VWS V14.01,2013-05-19 13:52:00,
2013-05-19 08:54:00,43.3,43.0,29.82,NNW,334,0.0,1.0,99,0.00,,,0.00,VWS V14.01,2013-05-19 13:54:00,
2013-05-19 08:55:00,43.3,43.0,29.82,NNW,334,0.0,1.0,99,0.00,,,0.00,VWS V14.01,2013-05-19 13:55:00,
2013-05-19 08:57:00,43.3,43.0,29.82,NNW,334,0.0,2.0,99,0.00,,,0.00,VWS V14.01,2013-05-19 13:57:00,
2013-05-19 08:59:00,43.4,43.1,29.82,NNW,334,2.0,5.0,99,0.00,,,0.00,VWS V14.01,2013-05-19 13:59:00,
2013-05-19 09:00:00,43.4,43.1,29.82,NNW,334,6.0,6.0,99,0.00,,,0.00,VWS V14.01,2013-05-19 14:00:00,
2013-05-19 09:02:00,43.5,43.2,29.82,NNW,334,2.0,6.0,99,0.00,,,0.00,VWS V14.01,2013-05-19 14:02:00,
2013-05-19 09:03:00,43.5,43.2,29.82,NNW,334,0.0,6.0,99,0.00,,,0.00,VWS V14.01,2013-05-19 14:03:00,
2013-05-19 09:04:00,43.5,43.2,29.82,NNW,334,0.0,6.0,99,0.00,,,0.00,VWS V14.01,2013-05-19 14:04:00,
2013-05-19 09:05:00,43.5,43.2,29.81,NNW,334,4.0,6.0,99,0.00,,,0.00,VWS V14.01,2013-05-19 14:05:00,
2013-05-19 09:07:00,43.5,43.2,29.81,NNW,334,5.0,6.0,99,0.00,,,0.00,VWS V14.01,2013-05-19 14:07:00,
2013-05-19 09:08:00,43.5,43.2,29.81,NNW,334,2.0,6.0,99,0.00,,,0.00,VWS V14.01,2013-05-19 14:08:00,
2013-05-19 09:10:00,43.5,43.2,29.81,NNW,334,5.0,6.0,99,0.00,,,0.00,VWS V14.01,2013-05-19 14:10:00,
2013-05-19 09:13:00,43.4,43.1,29.81,NNW,334,4.0,6.0,99,0.00,,,0.00,VWS V14.01,2013-05-19 14:13:00,
2013-05-19 09:14:00,43.5,43.2,29.81,NNW,334,4.0,6.0,99,0.00,,,0.00,VWS V14.01,2013-05-19 14:14:00,
2013-05-19 09:15:00,43.5,43.2,29.81,NNW,334,1.0,7.0,99,0.00,,,0.00,VWS V14.01,2013-05-19 14:15:00,
2013-05-19 09:18:00,43.6,43.3,29.81,NNW,334,0.0,7.0,99,0.00,,,0.00,VWS V14.01,2013-05-19 14:18:00,
2013-05-19 09:19:00,43.6,43.3,29.81,NNW,334,3.0,7.0,99,0.00,,,0.00,VWS V14.01,2013-05-19 14:19:00,
2013-05-19 09:20:00,43.6,43.3,29.81,NNW,334,4.0,7.0,99,0.00,,,0.00,VWS V14.01,2013-05-19 14:20:00,
2013-05-19 09:23:00,43.7,43.4,29.80,NNW,334,0.0,7.0,99,0.00,,,0.00,VWS V14.01,2013-05-19 14:23:00,
2013-05-19 09:24:00,43.8,43.5,29.80,NNW,334,0.0,1.0,99,0.00,,,0.00,VWS V14.01,2013-05-19 14:24:00,
2013-05-19 09:25:00,43.8,43.5,29.80,NNW,334,0.0,1.0,99,0.00,,,0.00,VWS V14.01,2013-05-19 14:25:00,
2013-05-19 09:29:00,44.0,43.7,29.80,NNW,334,0.0,2.0,99,0.00,,,0.00,VWS V14.01,2013-05-19 14:29:00,
2013-05-19 09:30:00,44.0,43.7,29.80,NNW,334,0.0,2.0,99,0.00,,,0.00,VWS V14.01,2013-05-19 14:30:00,
2013-05-19 09:31:00,44.1,43.8,29.80,NNW,334,0.0,2.0,99,0.00,,,0.00,VWS V14.01,2013-05-19 14:31:00,
2013-05-19 09:34:00,44.1,43.8,29.80,NNW,334,2.0,4.0,99,0.00,,,0.00,VWS V14.01,2013-05-19 14:34:00,
2013-05-19 09:35:00,44.1,43.8,29.80,NNW,334,3.0,5.0,99,0.00,,,0.00,VWS V14.01,2013-05-19 14:35:00,
2013-05-19 09:36:00,44.1,43.8,29.80,NNW,334,1.0,5.0,99,0.00,,,0.00,VWS V14.01,2013-05-19 14:36:00,
2013-05-19 09:37:00,44.1,43.8,29.80,NNW,335,1.0,5.0,99,0.00,,,0.00,VWS V14.01,2013-05-19 14:37:00,
2013-05-19 09:39:00,44.2,43.9,29.80,NNW,336,2.0,5.0,99,0.00,,,0.00,VWS V14.01,2013-05-19 14:39:00,
2013-05-19 09:40:00,44.2,43.9,29.80,NNW,335,2.0,5.0,99,0.00,,,0.00,VWS V14.01,2013-05-19 14:40:00,
2013-05-19 09:41:00,44.3,44.0,29.80,NNW,335,0.0,5.0,99,0.00,,,0.00,VWS V14.01,2013-05-19 14:41:00,
2013-05-19 09:42:00,44.4,44.1,29.79,NNW,335,0.0,5.0,99,0.00,,,0.00,VWS V14.01,2013-05-19 14:42:00,
2013-05-19 09:44:00,44.5,44.2,29.79,NNW,335,4.0,5.0,99,0.00,,,0.00,VWS V14.01,2013-05-19 14:44:00,
2013-05-19 09:46:00,44.5,44.2,29.79,NNW,336,3.0,5.0,99,0.00,,,0.00,VWS V14.01,2013-05-19 14:46:00,
2013-05-19 09:47:00,44.5,44.2,29.79,NNW,336,3.0,6.0,99,0.00,,,0.00,VWS V14.01,2013-05-19 14:47:00,
2013-05-19 09:50:00,44.5,44.2,29.79,NNW,336,1.0,6.0,99,0.00,,,0.00,VWS V14.01,2013-05-19 14:50:00,
2013-05-19 09:51:00,44.5,44.2,29.78,NNW,335,1.0,6.0,99,0.00,,,0.00,VWS V14.01,2013-05-19 14:51:00,
2013-05-19 09:53:00,44.5,44.2,29.78,NNW,335,3.0,6.0,99,0.00,,,0.00,VWS V14.01,2013-05-19 14:53:00,
2013-05-19 09:56:00,44.5,44.2,29.78,NNE,17,2.0,6.0,99,0.00,,,0.00,VWS V14.01,2013-05-19 14:56:00,
2013-05-19 09:58:00,44.6,44.3,29.77,North,360,6.0,7.0,99,0.00,,,0.00,VWS V14.01,2013-05-19 14:58:00,
2013-05-19 10:01:00,44.5,44.2,29.76,NNE,15,5.0,7.0,99,0.00,,,0.00,VWS V14.01,2013-05-19 15:01:00,
2013-05-19 10:03:00,44.5,44.2,29.76,NNE,22,2.0,8.0,99,0.00,,,0.00,VWS V14.01,2013-05-19 15:03:00,
2013-05-19 10:06:00,44.5,44.2,29.76,NNE,31,3.0,8.0,99,0.00,,,0.00,VWS V14.01,2013-05-19 15:06:00,
2013-05-19 10:07:00,44.5,44.2,29.75,North,349,4.0,8.0,99,0.00,,,0.00,VWS V14.01,2013-05-19 15:07:00,
2013-05-19 10:08:00,44.5,44.2,29.75,NNW,338,6.0,8.0,99,0.00,,,0.00,VWS V14.01,2013-05-19 15:08:00,
2013-05-19 10:11:00,44.5,44.2,29.75,NNE,14,4.0,8.0,99,0.00,,,0.00,VWS V14.01,2013-05-19 15:11:00,
2013-05-19 10:12:00,44.5,44.2,29.75,North,360,4.0,8.0,99,0.00,,,0.00,VWS V14.01,2013-05-19 15:12:00,
2013-05-19 10:13:00,44.5,44.2,29.75,NNE,28,2.0,8.0,99,0.00,,,0.00,VWS V14.01,2013-05-19 15:13:00,
2013-05-19 10:16:00,44.4,44.1,29.74,NNE,13,5.0,9.0,99,0.00,,,0.00,VWS V14.01,2013-05-19 15:16:00,
2013-05-19 10:17:00,44.4,44.1,29.74,North,5,4.0,9.0,99,0.00,,,0.00,VWS V14.01,2013-05-19 15:17:00,
2013-05-19 10:18:00,44.5,44.2,29.74,North,5,2.0,9.0,99,0.00,,,0.00,VWS V14.01,2013-05-19 15:18:00,
2013-05-19 10:21:00,44.7,44.4,29.73,NNE,15,4.0,9.0,99,0.00,,,0.00,VWS V14.01,2013-05-19 15:21:00,
2013-05-19 10:22:00,44.7,44.4,29.73,NNW,333,5.0,9.0,99,0.00,,,0.00,VWS V14.01,2013-05-19 15:22:00,
2013-05-19 10:24:00,44.9,44.6,29.73,NNE,17,6.0,6.0,99,0.00,,,0.00,VWS V14.01,2013-05-19 15:24:00,
2013-05-19 10:26:00,45.1,44.8,29.72,NNE,13,5.0,8.0,99,0.00,,,0.00,VWS V14.01,2013-05-19 15:26:00,
2013-05-19 10:27:00,45.1,44.8,29.72,North,10,4.0,8.0,99,0.00,,,0.00,VWS V14.01,2013-05-19 15:27:00,
2013-05-19 10:29:00,44.9,44.6,29.72,North,360,6.0,8.0,99,0.00,,,0.00,VWS V14.01,2013-05-19 15:29:00,
2013-05-19 10:31:00,44.8,44.5,29.70,NNW,344,6.0,9.0,99,0.00,,,0.00,VWS V14.01,2013-05-19 15:31:00,
2013-05-19 10:32:00,44.8,44.5,29.70,North,5,6.0,9.0,99,0.00,,,0.00,VWS V14.01,2013-05-19 15:32:00,
2013-05-19 10:33:00,44.8,44.5,29.70,NNW,348,6.0,9.0,99,0.00,,,0.00,VWS V14.01,2013-05-19 15:33:00,
2013-05-19 10:34:00,44.8,44.5,29.69,North,355,6.0,9.0,99,0.00,,,0.00,VWS V14.01,2013-05-19 15:34:00,
2013-05-19 10:37:00,44.7,44.4,29.68,North,355,6.0,10.0,99,0.00,,,0.00,VWS V14.01,2013-05-19 15:37:00,
2013-05-19 10:38:00,44.8,44.5,29.68,North,360,5.0,10.0,99,0.00,,,0.00,VWS V14.01,2013-05-19 15:38:00,
2013-05-19 10:40:00,44.9,44.6,29.68,NNW,344,4.0,10.0,99,0.00,,,0.00,VWS V14.01,2013-05-19 15:40:00,
2013-05-19 10:42:00,45.0,44.7,29.68,North,355,5.0,10.0,99,0.00,,,0.00,VWS V14.01,2013-05-19 15:42:00,
2013-05-19 10:43:00,45.3,45.0,29.68,NNW,331,5.0,10.0,99,0.00,,,0.00,VWS V14.01,2013-05-19 15:43:00,
2013-05-19 10:44:00,45.5,45.2,29.69,NNW,346,5.0,10.0,99,0.00,,,0.00,VWS V14.01,2013-05-19 15:44:00,
2013-05-19 10:45:00,45.6,45.3,29.69,NNW,330,5.0,10.0,99,0.00,,,0.00,VWS V14.01,2013-05-19 15:45:00,
2013-05-19 10:47:00,45.8,45.5,29.69,NNW,335,4.0,10.0,99,0.00,,,0.00,VWS V14.01,2013-05-19 15:47:00,
2013-05-19 10:48:00,45.8,45.5,29.70,North,5,6.0,10.0,99,0.00,,,0.00,VWS V14.01,2013-05-19 15:48:00,
2013-05-19 10:49:00,45.8,45.5,29.70,NNW,337,9.0,10.0,99,0.00,,,0.00,VWS V14.01,2013-05-19 15:49:00,
2013-05-19 10:50:00,45.7,45.4,29.71,NNW,331,6.0,10.0,99,0.00,,,0.00,VWS V14.01,2013-05-19 15:50:00,
2013-05-19 10:53:00,45.7,45.4,29.72,North,5,2.0,10.0,99,0.00,,,0.00,VWS V14.01,2013-05-19 15:53:00,
2013-05-19 10:54:00,45.6,45.3,29.73,NW,315,3.0,4.0,99,0.00,,,0.00,VWS V14.01,2013-05-19 15:54:00,
2013-05-19 10:55:00,45.7,45.4,29.74,NW,315,0.0,4.0,99,0.00,,,0.00,VWS V14.01,2013-05-19 15:55:00,
2013-05-19 10:58:00,45.8,45.5,29.74,NW,315,6.0,6.0,99,0.00,,,0.00,VWS V14.01,2013-05-19 15:58:00,
2013-05-19 10:59:00,45.9,45.6,29.74,NW,312,5.0,7.0,99,0.00,,,0.00,VWS V14.01,2013-05-19 15:59:00,
2013-05-19 11:00:00,46.0,45.7,29.74,NW,312,4.0,7.0,99,0.00,,,0.00,VWS V14.01,2013-05-19 16:00:00,
2013-05-19 11:03:00,46.1,45.8,29.75,NW,315,2.0,7.0,99,0.00,,,0.00,VWS V14.01,2013-05-19 16:03:00,
2013-05-19 11:04:00,46.1,45.8,29.75,NW,313,4.0,7.0,99,0.00,,,0.00,VWS V14.01,2013-05-19 16:04:00,
2013-05-19 11:06:00,46.2,45.9,29.75,NW,311,5.0,7.0,99,0.00,,,0.00,VWS V14.01,2013-05-19 16:06:00,
2013-05-19 11:08:00,46.4,46.1,29.75,NNW,327,6.0,7.0,99,0.00,,,0.00,VWS V14.01,2013-05-19 16:08:00,
2013-05-19 11:09:00,46.5,46.2,29.75,NW,325,5.0,7.0,99,0.00,,,0.00,VWS V14.01,2013-05-19 16:09:00,
2013-05-19 11:12:00,46.6,46.3,29.76,NW,325,0.0,7.0,99,0.00,,,0.00,VWS V14.01,2013-05-19 16:12:00,
2013-05-19 11:13:00,46.7,46.4,29.76,NW,325,2.0,7.0,99,0.00,,,0.00,VWS V14.01,2013-05-19 16:13:00,
2013-05-19 11:14:00,46.7,46.4,29.76,NW,325,0.0,7.0,99,0.00,,,0.00,VWS V14.01,2013-05-19 16:14:00,
2013-05-19 11:17:00,47.0,46.7,29.75,NNW,333,6.0,7.0,99,0.00,,,0.00,VWS V14.01,2013-05-19 16:17:00,
2013-05-19 11:18:00,47.0,46.7,29.75,NNW,332,5.0,7.0,99,0.00,,,0.00,VWS V14.01,2013-05-19 16:18:00,
2013-05-19 11:19:00,46.9,46.6,29.75,NNW,330,5.0,7.0,99,0.00,,,0.00,VWS V14.01,2013-05-19 16:19:00,
2013-05-19 11:22:00,46.9,46.6,29.75,NNW,333,6.0,7.0,99,0.00,,,0.00,VWS V14.01,2013-05-19 16:22:00,
2013-05-19 11:23:00,46.8,46.5,29.75,NW,313,6.0,6.0,99,0.00,,,0.00,VWS V14.01,2013-05-19 16:23:00,
2013-05-19 11:24:00,46.8,46.5,29.75,NW,326,6.0,7.0,99,0.00,,,0.00,VWS V14.01,2013-05-19 16:24:00,
2013-05-19 11:25:00,46.6,46.3,29.75,NNW,334,6.0,8.0,99,0.00,,,0.00,VWS V14.01,2013-05-19 16:25:00,
2013-05-19 11:27:00,46.4,46.1,29.75,NNW,336,5.0,8.0,99,0.00,,,0.00,VWS V14.01,2013-05-19 16:27:00,
2013-05-19 11:28:00,46.4,46.1,29.75,NW,317,2.0,8.0,99,0.00,,,0.00,VWS V14.01,2013-05-19 16:28:00,
2013-05-19 11:29:00,46.4,46.1,29.75,NW,313,4.0,8.0,99,0.00,,,0.00,VWS V14.01,2013-05-19 16:29:00,
2013-05-19 11:30:00,46.4,46.1,29.75,NW,313,3.0,8.0,99,0.00,,,0.00,VWS V14.01,2013-05-19 16:30:00,
2013-05-19 11:31:00,46.4,46.1,29.75,NW,323,4.0,8.0,99,0.00,,,0.00,VWS V14.01,2013-05-19 16:31:00,
2013-05-19 11:32:00,46.5,46.2,29.75,NW,311,5.0,8.0,99,0.00,,,0.00,VWS V14.01,2013-05-19 16:32:00,
2013-05-19 11:33:00,46.5,46.2,29.75,NNW,335,7.0,8.0,99,0.00,,,0.00,VWS V14.01,2013-05-19 16:33:00,
2013-05-19 11:34:00,46.5,46.2,29.75,NNW,337,7.0,9.0,99,0.00,,,0.00,VWS V14.01,2013-05-19 16:34:00,
2013-05-19 11:35:00,46.4,46.1,29.75,NNW,328,8.0,9.0,99,0.00,,,0.00,VWS V14.01,2013-05-19 16:35:00,
2013-05-19 11:36:00,46.2,45.9,29.75,NW,324,5.0,9.0,99,0.00,,,0.00,VWS V14.01,2013-05-19 16:36:00,
2013-05-19 11:37:00,46.2,45.9,29.75,NNW,331,5.0,9.0,99,0.00,,,0.00,VWS V14.01,2013-05-19 16:37:00,
2013-05-19 11:39:00,46.2,45.9,29.74,NNW,346,4.0,9.0,99,0.00,,,0.00,VWS V14.01,2013-05-19 16:39:00,
2013-05-19 11:40:00,46.3,46.0,29.75,NW,306,2.0,9.0,99,0.00,,,0.00,VWS V14.01,2013-05-19 16:40:00,
2013-05-19 11:42:00,46.5,46.0,29.75,NW,309,7.0,9.0,98,0.00,,,0.00,VWS V14.01,2013-05-19 16:42:00,
2013-05-19 11:43:00,46.5,46.0,29.75,NW,323,5.0,9.0,98,0.00,,,0.00,VWS V14.01,2013-05-19 16:43:00,
2013-05-19 11:44:00,46.5,46.0,29.75,NW,317,5.0,9.0,98,0.00,,,0.00,VWS V14.01,2013-05-19 16:44:00,
2013-05-19 11:45:00,46.5,46.0,29.75,NNW,333,4.0,9.0,98,0.00,,,0.00,VWS V14.01,2013-05-19 16:45:00,
2013-05-19 11:46:00,46.5,46.0,29.75,NNW,333,4.0,9.0,98,0.00,,,0.00,VWS V14.01,2013-05-19 16:46:00,
2013-05-19 11:47:00,46.4,45.9,29.75,NNW,333,7.0,9.0,98,0.00,,,0.00,VWS V14.01,2013-05-19 16:47:00,
2013-05-19 11:48:00,46.4,45.9,29.75,NNW,338,7.0,9.0,98,0.00,,,0.00,VWS V14.01,2013-05-19 16:48:00,
2013-05-19 11:49:00,46.3,45.8,29.75,NW,310,5.0,9.0,98,0.00,,,0.00,VWS V14.01,2013-05-19 16:49:00,
2013-05-19 11:50:00,46.3,45.8,29.75,NW,309,5.0,9.0,98,0.00,,,0.00,VWS V14.01,2013-05-19 16:50:00,
2013-05-19 11:51:00,46.3,45.8,29.75,NNW,329,6.0,9.0,98,0.00,,,0.00,VWS V14.01,2013-05-19 16:51:00,
2013-05-19 11:52:00,46.3,45.8,29.75,NNW,335,5.0,9.0,98,0.00,,,0.00,VWS V14.01,2013-05-19 16:52:00,
2013-05-19 11:53:00,46.3,45.8,29.75,NW,310,5.0,9.0,98,0.00,,,0.00,VWS V14.01,2013-05-19 16:53:00,
2013-05-19 11:54:00,46.3,45.8,29.75,NW,321,5.0,7.0,98,0.00,,,0.00,VWS V14.01,2013-05-19 16:54:00,
2013-05-19 11:56:00,46.3,45.8,29.75,NNW,331,6.0,8.0,98,0.00,,,0.00,VWS V14.01,2013-05-19 16:56:00,
2013-05-19 11:58:00,46.3,45.8,29.75,NW,324,5.0,8.0,98,0.00,,,0.00,VWS V14.01,2013-05-19 16:58:00,
2013-05-19 11:59:00,46.3,45.5,29.75,NW,319,6.0,9.0,97,0.00,,,0.00,VWS V14.01,2013-05-19 16:59:00,
2013-05-19 12:01:00,46.2,45.4,29.75,NNW,334,5.0,9.0,97,0.00,,,0.00,VWS V14.01,2013-05-19 17:01:00,
2013-05-19 12:03:00,46.2,45.4,29.75,NW,321,7.0,9.0,97,0.00,,,0.00,VWS V14.01,2013-05-19 17:03:00,
2013-05-19 12:04:00,46.3,45.5,29.75,NW,323,8.0,9.0,97,0.00,,,0.00,VWS V14.01,2013-05-19 17:04:00,
2013-05-19 12:06:00,46.4,45.6,29.75,NNW,331,5.0,10.0,97,0.00,,,0.00,VWS V14.01,2013-05-19 17:06:00,
2013-05-19 12:08:00,46.4,45.6,29.75,NNW,327,6.0,10.0,97,0.00,,,0.00,VWS V14.01,2013-05-19 17:08:00,
2013-05-19 12:10:00,46.3,45.2,29.75,NNW,333,7.0,10.0,96,0.00,,,0.00,VWS V14.01,2013-05-19 17:10:00,
2013-05-19 12:11:00,46.3,45.2,29.75,NW,321,7.0,10.0,96,0.00,,,0.00,VWS V14.01,2013-05-19 17:11:00,
2013-05-19 12:12:00,46.3,45.2,29.76,NW,316,7.0,10.0,96,0.00,,,0.00,VWS V14.01,2013-05-19 17:12:00,
2013-05-19 12:13:00,46.2,45.1,29.75,NW,319,6.0,10.0,96,0.00,,,0.00,VWS V14.01,2013-05-19 17:13:00,
2013-05-19 12:14:00,46.2,45.1,29.75,NW,311,6.0,10.0,96,0.00,,,0.00,VWS V14.01,2013-05-19 17:14:00,
2013-05-19 12:15:00,46.3,45.2,29.75,NW,320,7.0,10.0,96,0.00,,,0.00,VWS V14.01,2013-05-19 17:15:00,
2013-05-19 12:17:00,46.3,45.2,29.75,NNW,339,7.0,10.0,96,0.00,,,0.00,VWS V14.01,2013-05-19 17:17:00,
2013-05-19 12:18:00,46.5,45.4,29.75,NW,325,8.0,10.0,96,0.00,,,0.00,VWS V14.01,2013-05-19 17:18:00,
2013-05-19 12:19:00,46.5,45.4,29.75,NNW,342,6.0,10.0,96,0.00,,,0.00,VWS V14.01,2013-05-19 17:19:00,
2013-05-19 12:21:00,46.6,45.5,29.75,NNW,337,7.0,10.0,96,0.00,,,0.00,VWS V14.01,2013-05-19 17:21:00,
2013-05-19 12:22:00,46.6,45.5,29.75,NW,315,7.0,10.0,96,0.00,,,0.00,VWS V14.01,2013-05-19 17:22:00,
2013-05-19 12:24:00,46.6,45.5,29.75,NNW,344,7.0,8.0,96,0.00,,,0.00,VWS V14.01,2013-05-19 17:24:00,
2013-05-19 12:25:00,46.5,45.2,29.74,NNW,328,7.0,9.0,95,0.00,,,0.00,VWS V14.01,2013-05-19 17:25:00,
2013-05-19 12:26:00,46.5,45.2,29.74,NNW,333,6.0,9.0,95,0.00,,,0.00,VWS V14.01,2013-05-19 17:26:00,
2013-05-19 12:27:00,46.5,45.2,29.74,NNW,340,7.0,9.0,95,0.00,,,0.00,VWS V14.01,2013-05-19 17:27:00,
2013-05-19 12:29:00,46.6,45.2,29.73,NNW,331,5.0,9.0,95,0.00,,,0.00,VWS V14.01,2013-05-19 17:29:00,
2013-05-19 12:30:00,46.7,45.3,29.73,NNW,336,6.0,9.0,95,0.00,,,0.00,VWS V14.01,2013-05-19 17:30:00,
2013-05-19 12:31:00,46.9,45.8,29.73,NNW,327,9.0,10.0,96,0.00,,,0.00,VWS V14.01,2013-05-19 17:31:00,
2013-05-19 12:32:00,47.0,45.9,29.73,NNW,334,7.0,10.0,96,0.00,,,0.00,VWS V14.01,2013-05-19 17:32:00,
2013-05-19 12:34:00,47.1,45.7,29.73,North,350,5.0,10.0,95,0.00,,,0.00,VWS V14.01,2013-05-19 17:34:00,
2013-05-19 12:35:00,47.2,45.8,29.73,NNW,335,6.0,10.0,95,0.00,,,0.00,VWS V14.01,2013-05-19 17:35:00,
2013-05-19 12:37:00,47.4,46.0,29.74,NNW,332,8.0,10.0,95,0.00,,,0.00,VWS V14.01,2013-05-19 17:37:00,
2013-05-19 12:38:00,47.5,45.9,29.74,NNW,345,4.0,10.0,94,0.00,,,0.00,VWS V14.01,2013-05-19 17:38:00,
2013-05-19 12:40:00,47.7,46.1,29.74,NNW,339,5.0,10.0,94,0.00,,,0.00,VWS V14.01,2013-05-19 17:40:00,
2013-05-19 12:42:00,48.0,46.4,29.74,NNW,346,6.0,10.0,94,0.00,,,0.00,VWS V14.01,2013-05-19 17:42:00,
2013-05-19 12:43:00,48.1,46.5,29.74,NNW,333,10.0,10.0,94,0.00,,,0.00,VWS V14.01,2013-05-19 17:43:00,
2013-05-19 12:45:00,48.2,46.3,29.74,NNW,346,2.0,10.0,93,0.00,,,0.00,VWS V14.01,2013-05-19 17:45:00,
2013-05-19 12:47:00,48.5,46.6,29.73,NNW,337,8.0,10.0,93,0.00,,,0.00,VWS V14.01,2013-05-19 17:47:00,
2013-05-19 12:48:00,48.6,46.7,29.73,NNW,333,8.0,10.0,93,0.00,,,0.00,VWS V14.01,2013-05-19 17:48:00,
2013-05-19 12:49:00,48.7,46.5,29.73,NNW,331,6.0,10.0,92,0.00,,,0.00,VWS V14.01,2013-05-19 17:49:00,
2013-05-19 12:50:00,48.7,46.5,29.73,NNE,23,3.0,10.0,92,0.00,,,0.00,VWS V14.01,2013-05-19 17:50:00,
2013-05-19 12:52:00,48.8,46.6,29.74,NNW,341,6.0,10.0,92,0.00,,,0.00,VWS V14.01,2013-05-19 17:52:00,
2013-05-19 12:53:00,48.9,46.4,29.74,NNW,336,5.0,10.0,91,0.00,,,0.00,VWS V14.01,2013-05-19 17:53:00,
2013-05-19 12:54:00,49.0,46.5,29.74,NNW,338,5.0,7.0,91,0.00,,,0.00,VWS V14.01,2013-05-19 17:54:00,
2013-05-19 12:55:00,49.1,46.9,29.74,NNW,344,6.0,8.0,92,0.00,,,0.00,VWS V14.01,2013-05-19 17:55:00,
2013-05-19 12:57:00,49.2,46.7,29.74,NNW,332,6.0,8.0,91,0.00,,,0.00,VWS V14.01,2013-05-19 17:57:00,
2013-05-19 12:59:00,49.4,46.6,29.74,NW,319,6.0,8.0,90,0.00,,,0.00,VWS V14.01,2013-05-19 17:59:00,
2013-05-19 13:00:00,49.5,47.0,29.74,NW,323,5.0,8.0,91,0.00,,,0.00,VWS V14.01,2013-05-19 18:00:00,
2013-05-19 13:01:00,49.7,47.2,29.74,NW,313,4.0,8.0,91,0.00,,,0.00,VWS V14.01,2013-05-19 18:01:00,
2013-05-19 13:02:00,49.9,47.4,29.74,NW,316,4.0,9.0,91,0.00,,,0.00,VWS V14.01,2013-05-19 18:02:00,
2013-05-19 13:05:00,50.0,46.9,29.74,NW,319,10.0,12.0,89,0.00,,,0.00,VWS V14.01,2013-05-19 18:05:00,
2013-05-19 13:06:00,50.0,46.9,29.74,WNW,298,7.0,12.0,89,0.00,,,0.00,VWS V14.01,2013-05-19 18:06:00,
2013-05-19 13:07:00,49.9,46.5,29.74,NNW,338,5.0,12.0,88,0.00,,,0.00,VWS V14.01,2013-05-19 18:07:00,
2013-05-19 13:10:00,49.6,46.2,29.74,NW,315,6.0,12.0,88,0.00,,,0.00,VWS V14.01,2013-05-19 18:10:00,
2013-05-19 13:11:00,49.6,46.2,29.74,NW,325,6.0,12.0,88,0.00,,,0.00,VWS V14.01,2013-05-19 18:11:00,
2013-05-19 13:12:00,49.5,46.1,29.73,NNW,333,6.0,12.0,88,0.00,,,0.00,VWS V14.01,2013-05-19 18:12:00,
2013-05-19 13:15:00,49.5,46.4,29.74,NNW,334,6.0,12.0,89,0.00,,,0.00,VWS V14.01,2013-05-19 18:15:00,
2013-05-19 13:17:00,49.5,46.4,29.73,NW,323,7.0,12.0,89,0.00,,,0.00,VWS V14.01,2013-05-19 18:17:00,
2013-05-19 13:20:00,49.3,45.9,29.74,NW,325,6.0,12.0,88,0.00,,,0.00,VWS V14.01,2013-05-19 18:20:00,
2013-05-19 13:22:00,49.4,46.0,29.73,NW,320,7.0,12.0,88,0.00,,,0.00,VWS V14.01,2013-05-19 18:22:00,
2013-05-19 13:26:00,49.8,46.4,29.74,NNW,337,6.0,10.0,88,0.00,,,0.00,VWS V14.01,2013-05-19 18:26:00,
2013-05-19 13:27:00,49.9,46.2,29.73,NNW,344,5.0,10.0,87,0.00,,,0.00,VWS V14.01,2013-05-19 18:27:00,
2013-05-19 13:28:00,50.0,46.6,29.73,North,11,2.0,10.0,88,0.00,,,0.00,VWS V14.01,2013-05-19 18:28:00,
2013-05-19 13:31:00,50.4,47.0,29.74,NNW,332,8.0,10.0,88,0.00,,,0.00,VWS V14.01,2013-05-19 18:31:00,
2013-05-19 13:32:00,50.7,47.6,29.74,NNW,331,11.0,11.0,89,0.00,,,0.00,VWS V14.01,2013-05-19 18:32:00,
2013-05-19 13:33:00,50.9,47.5,29.73,NNW,327,8.0,11.0,88,0.00,,,0.00,VWS V14.01,2013-05-19 18:33:00,
2013-05-19 13:36:00,51.3,47.6,29.73,NNE,13,1.0,11.0,87,0.00,,,0.00,VWS V14.01,2013-05-19 18:36:00,
2013-05-19 13:37:00,51.4,47.7,29.74,North,360,2.0,11.0,87,0.00,,,0.00,VWS V14.01,2013-05-19 18:37:00,
2013-05-19 13:38:00,51.5,48.1,29.74,North,350,8.0,11.0,88,0.00,,,0.00,VWS V14.01,2013-05-19 18:38:00,
2013-05-19 13:41:00,51.9,47.5,29.74,NNW,335,8.0,11.0,85,0.00,,,0.00,VWS V14.01,2013-05-19 18:41:00,
2013-05-19 13:42:00,51.8,47.4,29.74,NNW,340,6.0,11.0,85,0.00,,,0.00,VWS V14.01,2013-05-19 18:42:00,
2013-05-19 13:43:00,51.8,47.4,29.74,NNW,343,5.0,11.0,85,0.00,,,0.00,VWS V14.01,2013-05-19 18:43:00,
2013-05-19 13:46:00,52.0,48.0,29.74,NNW,340,5.0,11.0,86,0.00,,,0.00,VWS V14.01,2013-05-19 18:46:00,
2013-05-19 13:47:00,52.1,48.0,29.74,NNW,333,8.0,11.0,86,0.00,,,0.00,VWS V14.01,2013-05-19 18:47:00,
2013-05-19 13:48:00,52.2,47.8,29.74,NNW,346,5.0,11.0,85,0.00,,,0.00,VWS V14.01,2013-05-19 18:48:00,
2013-05-19 13:51:00,52.4,48.3,29.74,North,350,5.0,11.0,86,0.00,,,0.00,VWS V14.01,2013-05-19 18:51:00,
2013-05-19 13:52:00,52.6,48.5,29.74,North,360,4.0,11.0,86,0.00,,,0.00,VWS V14.01,2013-05-19 18:52:00,
2013-05-19 13:53:00,52.7,48.3,29.74,NNW,337,5.0,11.0,85,0.00,,,0.00,VWS V14.01,2013-05-19 18:53:00,
2013-05-19 13:56:00,53.1,48.7,29.74,NNW,342,7.0,8.0,85,0.00,,,0.00,VWS V14.01,2013-05-19 18:56:00,
2013-05-19 13:57:00,53.1,48.7,29.74,NNW,338,7.0,9.0,85,0.00,,,0.00,VWS V14.01,2013-05-19 18:57:00,
2013-05-19 13:58:00,53.2,48.2,29.74,NNW,329,8.0,9.0,83,0.00,,,0.00,VWS V14.01,2013-05-19 18:58:00,
2013-05-19 13:59:00,53.2,48.2,29.74,NW,326,8.0,9.0,83,0.00,,,0.00,VWS V14.01,2013-05-19 18:59:00,
2013-05-19 14:01:00,53.0,47.7,29.74,NNW,345,4.0,10.0,82,0.00,,,0.00,VWS V14.01,2013-05-19 19:01:00,
2013-05-19 14:02:00,52.9,47.6,29.74,NNW,331,5.0,10.0,82,0.00,,,0.00,VWS V14.01,2013-05-19 19:02:00,
2013-05-19 14:04:00,52.9,47.9,29.74,NNW,331,7.0,10.0,83,0.00,,,0.00,VWS V14.01,2013-05-19 19:04:00,
2013-05-19 14:07:00,52.8,47.5,29.74,NW,322,5.0,10.0,82,0.00,,,0.00,VWS V14.01,2013-05-19 19:07:00,
2013-05-19 14:09:00,52.7,47.4,29.74,NNW,341,8.0,10.0,82,0.00,,,0.00,VWS V14.01,2013-05-19 19:09:00,
2013-05-19 14:10:00,52.4,47.1,29.74,NNW,329,8.0,10.0,82,0.00,,,0.00,VWS V14.01,2013-05-19 19:10:00,
2013-05-19 14:12:00,52.2,46.9,29.74,NNW,331,8.0,10.0,82,0.00,,,0.00,VWS V14.01,2013-05-19 19:12:00,
2013-05-19 14:14:00,51.8,46.8,29.74,NNW,330,7.0,10.0,83,0.00,,,0.00,VWS V14.01,2013-05-19 19:14:00,
2013-05-19 14:15:00,51.7,46.7,29.74,WNW,300,7.0,10.0,83,0.00,,,0.00,VWS V14.01,2013-05-19 19:15:00,
2013-05-19 14:17:00,51.5,46.5,29.74,NW,314,5.0,10.0,83,0.00,,,0.00,VWS V14.01,2013-05-19 19:17:00,
2013-05-19 14:18:00,51.4,46.4,29.75,NW,306,7.0,10.0,83,0.00,,,0.00,VWS V14.01,2013-05-19 19:18:00,
2013-05-19 14:19:00,51.4,46.7,29.75,NNW,342,5.0,10.0,84,0.00,,,0.00,VWS V14.01,2013-05-19 19:19:00,
2013-05-19 14:20:00,51.3,46.3,29.75,NW,313,7.0,10.0,83,0.00,,,0.00,VWS V14.01,2013-05-19 19:20:00,
2013-05-19 14:22:00,51.2,46.5,29.75,NW,322,11.0,11.0,84,0.00,,,0.00,VWS V14.01,2013-05-19 19:22:00,
2013-05-19 14:23:00,51.2,46.5,29.75,NW,317,8.0,11.0,84,0.00,,,0.00,VWS V14.01,2013-05-19 19:23:00,
2013-05-19 14:24:00,51.0,46.0,29.74,NNW,327,7.0,11.0,83,0.00,,,0.00,VWS V14.01,2013-05-19 19:24:00,
2013-05-19 14:26:00,50.6,45.6,29.74,NNW,336,8.0,11.0,83,0.00,,,0.00,VWS V14.01,2013-05-19 19:26:00,
2013-05-19 14:27:00,50.5,45.8,29.75,NNW,329,7.0,11.0,84,0.00,,,0.00,VWS V14.01,2013-05-19 19:27:00,
2013-05-19 14:28:00,50.5,46.2,29.75,NW,310,6.0,11.0,85,0.00,,,0.00,VWS V14.01,2013-05-19 19:28:00,
2013-05-19 14:29:00,50.4,46.1,29.75,NNW,344,7.0,11.0,85,0.00,,,0.00,VWS V14.01,2013-05-19 19:29:00,
2013-05-19 14:31:00,50.3,45.7,29.75,NNW,334,9.0,11.0,84,0.00,,,0.00,VWS V14.01,2013-05-19 19:31:00,
2013-05-19 14:32:00,50.2,45.9,29.75,NW,326,6.0,11.0,85,0.00,,,0.00,VWS V14.01,2013-05-19 19:32:00,
2013-05-19 14:33:00,50.1,45.8,29.75,NW,313,8.0,11.0,85,0.00,,,0.00,VWS V14.01,2013-05-19 19:33:00,
2013-05-19 14:34:00,50.1,45.5,29.75,NNW,327,7.0,11.0,84,0.00,,,0.00,VWS V14.01,2013-05-19 19:34:00,
2013-05-19 14:36:00,50.1,45.8,29.75,NNW,333,8.0,11.0,85,0.00,,,0.00,VWS V14.01,2013-05-19 19:36:00,
2013-05-19 14:37:00,50.1,45.8,29.75,NNW,338,9.0,11.0,85,0.00,,,0.00,VWS V14.01,2013-05-19 19:37:00,
2013-05-19 14:38:00,50.0,45.7,29.74,NNW,333,11.0,11.0,85,0.00,,,0.00,VWS V14.01,2013-05-19 19:38:00,
2013-05-19 14:39:00,50.0,45.7,29.74,NNW,336,7.0,11.0,85,0.00,,,0.00,VWS V14.01,2013-05-19 19:39:00,
2013-05-19 14:42:00,50.2,45.9,29.75,NNW,338,9.0,11.0,85,0.00,,,0.00,VWS V14.01,2013-05-19 19:42:00,
2013-05-19 14:43:00,50.1,45.8,29.75,NNW,331,9.0,11.0,85,0.00,,,0.00,VWS V14.01,2013-05-19 19:43:00,
2013-05-19 14:44:00,50.1,45.8,29.75,NW,321,10.0,11.0,85,0.00,,,0.00,VWS V14.01,2013-05-19 19:44:00,
2013-05-19 14:47:00,50.0,45.7,29.75,NNW,338,8.0,11.0,85,0.00,,,0.00,VWS V14.01,2013-05-19 19:47:00,
2013-05-19 14:48:00,49.9,45.3,29.74,NNW,333,7.0,11.0,84,0.00,,,0.00,VWS V14.01,2013-05-19 19:48:00,
2013-05-19 14:49:00,49.9,45.6,29.74,NNW,337,8.0,11.0,85,0.00,,,0.00,VWS V14.01,2013-05-19 19:49:00,
2013-05-19 14:52:00,50.1,45.5,29.74,NNW,338,7.0,11.0,84,0.00,,,0.00,VWS V14.01,2013-05-19 19:52:00,
2013-05-19 14:53:00,50.1,45.5,29.74,NNW,333,6.0,11.0,84,0.00,,,0.00,VWS V14.01,2013-05-19 19:53:00,
2013-05-19 14:54:00,50.1,45.8,29.74,NNW,332,9.0,9.0,85,0.00,,,0.00,VWS V14.01,2013-05-19 19:54:00,
2013-05-19 14:55:00,50.1,45.8,29.74,NW,324,7.0,10.0,85,0.00,,,0.00,VWS V14.01,2013-05-19 19:55:00,
2013-05-19 14:58:00,50.1,45.8,29.74,NNW,340,8.0,10.0,85,0.00,,,0.00,VWS V14.01,2013-05-19 19:58:00,
2013-05-19 14:59:00,50.1,45.8,29.74,NNW,340,7.0,10.0,85,0.00,,,0.00,VWS V14.01,2013-05-19 19:59:00,
2013-05-19 15:00:00,50.2,45.9,29.74,NNW,332,7.0,10.0,85,0.00,,OVC006,0.00,VWS V14.01,2013-05-19 20:00:00,
2013-05-19 15:03:00,50.5,45.8,29.74,NNW,328,7.0,11.0,84,0.00,,OVC006,0.00,VWS V14.01,2013-05-19 20:03:00,
2013-05-19 15:04:00,50.4,45.8,29.74,NNW,333,8.0,11.0,84,0.00,,OVC006,0.00,VWS V14.01,2013-05-19 20:04:00,
2013-05-19 15:05:00,50.4,45.8,29.74,NNW,336,8.0,11.0,84,0.00,,OVC006,0.00,VWS V14.01,2013-05-19 20:05:00,
2013-05-19 15:08:00,50.0,45.4,29.74,North,360,4.0,11.0,84,0.00,,OVC006,0.00,VWS V14.01,2013-05-19 20:08:00,
2013-05-19 15:09:00,50.0,45.4,29.74,NNW,327,8.0,11.0,84,0.00,,OVC006,0.00,VWS V14.01,2013-05-19 20:09:00,
2013-05-19 15:10:00,50.0,45.4,29.74,NW,319,6.0,11.0,84,0.00,,OVC006,0.00,VWS V14.01,2013-05-19 20:10:00,
2013-05-19 15:13:00,50.0,46.0,29.74,NNW,332,7.0,11.0,86,0.00,,OVC006,0.00,VWS V14.01,2013-05-19 20:13:00,
2013-05-19 15:14:00,50.0,46.0,29.74,NW,316,8.0,11.0,86,0.00,,OVC006,0.00,VWS V14.01,2013-05-19 20:14:00,
2013-05-19 15:15:00,50.3,46.0,29.74,NNW,334,8.0,11.0,85,0.00,,OVC006,0.00,VWS V14.01,2013-05-19 20:15:00,
2013-05-19 15:16:00,50.6,46.3,29.74,NNW,328,7.0,11.0,85,0.00,,OVC006,0.00,VWS V14.01,2013-05-19 20:16:00,
2013-05-19 15:18:00,50.8,46.2,29.74,NNW,328,6.0,11.0,84,0.00,,OVC006,0.00,VWS V14.01,2013-05-19 20:18:00,
2013-05-19 15:19:00,50.8,46.2,29.74,NNW,329,6.0,11.0,84,0.00,,OVC006,0.00,VWS V14.01,2013-05-19 20:19:00,
2013-05-19 15:21:00,51.0,46.3,29.74,North,355,4.0,11.0,84,0.00,,OVC006,0.00,VWS V14.01,2013-05-19 20:21:00,
2013-05-19 15:22:00,51.0,46.3,29.74,NNW,342,4.0,11.0,84,0.00,,OVC006,0.00,VWS V14.01,2013-05-19 20:22:00,
2013-05-19 15:24:00,51.2,46.2,29.74,North,355,5.0,6.0,83,0.00,,OVC006,0.00,VWS V14.01,2013-05-19 20:24:00,
2013-05-19 15:26:00,51.2,46.2,29.74,NNW,334,7.0,11.0,83,0.00,,OVC006,0.00,VWS V14.01,2013-05-19 20:26:00,
2013-05-19 15:27:00,51.2,46.2,29.74,NNW,333,7.0,11.0,83,0.00,,OVC006,0.00,VWS V14.01,2013-05-19 20:27:00,
2013-05-19 15:29:00,51.4,46.4,29.74,NNE,28,3.0,11.0,83,0.00,,OVC006,0.00,VWS V14.01,2013-05-19 20:29:00,
2013-05-19 15:31:00,51.5,46.2,29.74,NNW,347,7.0,11.0,82,0.00,,OVC006,0.00,VWS V14.01,2013-05-19 20:31:00,
2013-05-19 15:32:00,51.5,46.2,29.74,NNW,347,7.0,11.0,82,0.00,,OVC006,0.00,VWS V14.01,2013-05-19 20:32:00,
2013-05-19 15:34:00,51.2,45.9,29.74,NNW,329,8.0,11.0,82,0.00,,OVC006,0.00,VWS V14.01,2013-05-19 20:34:00,
2013-05-19 15:37:00,51.1,46.4,29.74,North,351,5.0,11.0,84,0.00,,OVC004,0.00,VWS V14.01,2013-05-19 20:37:00,
2013-05-19 15:39:00,51.2,46.5,29.74,NNW,336,8.0,11.0,84,0.00,,OVC004,0.00,VWS V14.01,2013-05-19 20:39:00,
2013-05-19 15:40:00,51.2,46.5,29.73,NW,323,9.0,12.0,84,0.00,,OVC004,0.00,VWS V14.01,2013-05-19 20:40:00,
2013-05-19 15:42:00,51.3,46.6,29.73,NNE,17,6.0,12.0,84,0.00,,OVC004,0.00,VWS V14.01,2013-05-19 20:42:00,
2013-05-19 15:45:00,51.6,46.9,29.73,North,360,5.0,12.0,84,0.00,,OVC004,0.00,VWS V14.01,2013-05-19 20:45:00,
2013-05-19 15:47:00,51.5,46.5,29.74,NNW,329,9.0,12.0,83,0.00,,OVC004,0.00,VWS V14.01,2013-05-19 20:47:00,
2013-05-19 15:50:00,51.3,46.3,29.74,NNW,331,6.0,12.0,83,0.00,,OVC004,0.00,VWS V14.01,2013-05-19 20:50:00,
2013-05-19 15:52:00,51.0,45.7,29.74,NNW,340,10.0,12.0,82,0.00,,OVC004,0.00,VWS V14.01,2013-05-19 20:52:00,
2013-05-19 15:55:00,50.8,46.2,29.74,NNW,338,10.0,12.0,84,0.00,,OVC004,0.00,VWS V14.01,2013-05-19 20:55:00,
2013-05-19 15:57:00,50.6,45.6,29.74,NNW,344,6.0,12.0,83,0.00,,OVC004,0.00,VWS V14.01,2013-05-19 20:57:00,
2013-05-19 15:58:00,50.6,45.6,29.74,NNW,332,8.0,12.0,83,0.00,,OVC004,0.00,VWS V14.01,2013-05-19 20:58:00,
2013-05-19 16:00:00,50.4,46.1,29.73,NNW,333,9.0,12.0,85,0.00,,OVC004,0.00,VWS V14.01,2013-05-19 21:00:00,
2013-05-19 16:03:00,50.2,45.6,29.73,NW,319,10.0,12.0,84,0.00,,OVC004,0.00,VWS V14.01,2013-05-19 21:03:00,
2013-05-19 16:05:00,50.0,45.7,29.73,NNW,340,10.0,13.0,85,0.00,,OVC004,0.00,VWS V14.01,2013-05-19 21:05:00,
2013-05-19 16:08:00,49.9,45.6,29.74,North,355,7.0,13.0,85,0.00,,OVC004,0.00,VWS V14.01,2013-05-19 21:08:00,
2013-05-19 16:09:00,49.9,45.6,29.74,North,355,7.0,13.0,85,0.00,,OVC004,0.00,VWS V14.01,2013-05-19 21:09:00,
2013-05-19 16:10:00,50.1,46.1,29.74,NNW,338,8.0,13.0,86,0.00,,OVC004,0.00,VWS V14.01,2013-05-19 21:10:00,
2013-05-19 16:11:00,50.1,46.1,29.74,NNW,334,9.0,13.0,86,0.00,,OVC004,0.00,VWS V14.01,2013-05-19 21:11:00,
2013-05-19 16:14:00,50.1,45.8,29.74,NNW,344,6.0,13.0,85,0.00,,OVC004,0.00,VWS V14.01,2013-05-19 21:14:00,
2013-05-19 16:16:00,50.1,45.8,29.74,NNW,332,8.0,13.0,85,0.00,,OVC004,0.00,VWS V14.01,2013-05-19 21:16:00,
2013-05-19 16:19:00,50.2,45.6,29.74,NW,321,11.0,13.0,84,0.00,,OVC004,0.00,VWS V14.01,2013-05-19 21:19:00,
2013-05-19 16:20:00,50.1,45.5,29.74,NNW,333,8.0,13.0,84,0.00,,OVC004,0.00,VWS V14.01,2013-05-19 21:20:00,
2013-05-19 16:21:00,50.1,45.8,29.74,NNW,332,10.0,13.0,85,0.00,,OVC004,0.00,VWS V14.01,2013-05-19 21:21:00,
2013-05-19 16:22:00,50.1,46.1,29.74,NNW,331,10.0,13.0,86,0.00,,OVC004,0.00,VWS V14.01,2013-05-19 21:22:00,
2013-05-19 16:24:00,50.1,46.1,29.74,NNE,28,4.0,7.0,86,0.00,,OVC004,0.00,VWS V14.01,2013-05-19 21:24:00,
2013-05-19 16:25:00,50.2,46.2,29.74,North,355,5.0,8.0,86,0.00,,OVC004,0.00,VWS V14.01,2013-05-19 21:25:00,
2013-05-19 16:26:00,50.2,45.9,29.74,NNW,341,4.0,8.0,85,0.00,,OVC004,0.00,VWS V14.01,2013-05-19 21:26:00,
2013-05-19 16:27:00,50.2,45.9,29.73,NNE,23,7.0,12.0,85,0.00,,OVC004,0.00,VWS V14.01,2013-05-19 21:27:00,
2013-05-19 16:30:00,50.3,46.0,29.73,NNW,328,9.0,12.0,85,0.00,,OVC004,0.00,VWS V14.01,2013-05-19 21:30:00,
2013-05-19 16:31:00,50.3,45.7,29.73,North,5,8.0,12.0,84,0.00,,OVC004,0.00,VWS V14.01,2013-05-19 21:31:00,
2013-05-19 16:32:00,50.3,46.0,29.73,NW,320,7.0,12.0,85,0.00,,OVC004,0.00,VWS V14.01,2013-05-19 21:32:00,
2013-05-19 16:33:00,50.4,46.1,29.74,NNW,333,6.0,12.0,85,0.00,,OVC004,0.00,VWS V14.01,2013-05-19 21:33:00,
2013-05-19 16:35:00,50.4,46.1,29.74,NW,319,10.0,12.0,85,0.00,,OVC004,0.00,VWS V14.01,2013-05-19 21:35:00,
2013-05-19 16:36:00,50.4,45.8,29.74,NNW,337,9.0,12.0,84,0.00,,OVC004,0.00,VWS V14.01,2013-05-19 21:36:00,
2013-05-19 16:38:00,50.3,45.7,29.73,NNW,334,6.0,12.0,84,0.00,,OVC004,0.00,VWS V14.01,2013-05-19 21:38:00,
2013-05-19 16:40:00,50.2,45.6,29.73,NNW,340,8.0,12.0,84,0.00,,OVC004,0.00,VWS V14.01,2013-05-19 21:40:00,
2013-05-19 16:41:00,50.1,45.5,29.73,NW,310,7.0,12.0,84,0.00,,OVC004,0.00,VWS V14.01,2013-05-19 21:41:00,
2013-05-19 16:43:00,50.0,45.4,29.73,NNW,331,8.0,12.0,84,0.00,,OVC004,0.00,VWS V14.01,2013-05-19 21:43:00,
2013-05-19 16:46:00,49.6,45.3,29.73,NW,325,12.0,12.0,85,0.00,,OVC004,0.00,VWS V14.01,2013-05-19 21:46:00,
2013-05-19 16:47:00,49.5,45.2,29.73,NNW,336,8.0,12.0,85,0.00,,OVC004,0.00,VWS V14.01,2013-05-19 21:47:00,
2013-05-19 16:48:00,49.5,45.5,29.73,North,355,5.0,12.0,86,0.00,,OVC004,0.00,VWS V14.01,2013-05-19 21:48:00,
2013-05-19 16:51:00,49.5,45.5,29.73,NNW,333,7.0,12.0,86,0.00,,OVC004,0.00,VWS V14.01,2013-05-19 21:51:00,
2013-05-19 16:52:00,49.4,45.4,29.73,NNW,348,9.0,12.0,86,0.00,,OVC004,0.00,VWS V14.01,2013-05-19 21:52:00,
2013-05-19 16:53:00,49.4,45.1,29.73,NW,323,9.0,12.0,85,0.00,,OVC004,0.00,VWS V14.01,2013-05-19 21:53:00,
2013-05-19 16:56:00,49.1,44.8,29.73,North,5,6.0,9.0,85,0.00,,,0.00,VWS V14.01,2013-05-19 21:56:00,
2013-05-19 16:57:00,49.1,45.1,29.73,NNW,336,9.0,10.0,86,0.00,,,0.00,VWS V14.01,2013-05-19 21:57:00,
2013-05-19 16:58:00,49.1,45.1,29.73,NNW,340,10.0,11.0,86,0.00,,,0.00,VWS V14.01,2013-05-19 21:58:00,
2013-05-19 16:59:00,49.1,45.1,29.73,NNW,338,7.0,11.0,86,0.00,,,0.00,VWS V14.01,2013-05-19 21:59:00,
2013-05-19 17:02:00,49.0,45.0,29.73,NNW,330,8.0,12.0,86,0.00,,,0.00,VWS V14.01,2013-05-19 22:02:00,
2013-05-19 17:03:00,48.9,44.9,29.73,NNW,327,6.0,12.0,86,0.00,,,0.00,VWS V14.01,2013-05-19 22:03:00,
2013-05-19 17:04:00,48.9,44.9,29.73,NNW,330,5.0,12.0,86,0.00,,,0.00,VWS V14.01,2013-05-19 22:04:00,
2013-05-19 17:07:00,49.0,45.0,29.72,NNW,347,9.0,12.0,86,0.00,,,0.00,VWS V14.01,2013-05-19 22:07:00,
2013-05-19 17:09:00,49.0,45.0,29.73,NNW,334,6.0,12.0,86,0.00,,,0.00,VWS V14.01,2013-05-19 22:09:00,
2013-05-19 17:12:00,49.2,45.2,29.73,NNW,327,8.0,12.0,86,0.00,,,0.00,VWS V14.01,2013-05-19 22:12:00,
2013-05-19 17:13:00,49.1,44.8,29.73,NNW,327,8.0,12.0,85,0.00,,,0.00,VWS V14.01,2013-05-19 22:13:00,
2013-05-19 17:14:00,49.0,45.0,29.72,NNW,331,10.0,12.0,86,0.00,,,0.00,VWS V14.01,2013-05-19 22:14:00,
2013-05-19 17:17:00,48.9,44.9,29.72,North,9,6.0,12.0,86,0.00,,,0.00,VWS V14.01,2013-05-19 22:17:00,
2013-05-19 17:19:00,48.8,44.8,29.72,NW,321,10.0,12.0,86,0.00,,,0.00,VWS V14.01,2013-05-19 22:19:00,
2013-05-19 17:20:00,48.7,44.7,29.72,NNW,334,9.0,12.0,86,0.00,,,0.00,VWS V14.01,2013-05-19 22:20:00,
2013-05-19 17:23:00,48.7,45.0,29.72,North,351,3.0,12.0,87,0.00,,,0.00,VWS V14.01,2013-05-19 22:23:00,
2013-05-19 17:24:00,48.8,45.1,29.72,NNW,344,6.0,8.0,87,0.00,,,0.00,VWS V14.01,2013-05-19 22:24:00,
2013-05-19 17:25:00,48.8,44.8,29.72,North,9,7.0,10.0,86,0.00,,,0.00,VWS V14.01,2013-05-19 22:25:00,
2013-05-19 17:26:00,48.8,45.1,29.72,NNW,330,6.0,10.0,87,0.00,,,0.00,VWS V14.01,2013-05-19 22:26:00,
2013-05-19 17:28:00,48.9,45.2,29.72,NNW,335,5.0,11.0,87,0.00,,,0.00,VWS V14.01,2013-05-19 22:28:00,
2013-05-19 17:29:00,48.9,45.2,29.72,NNW,332,7.0,11.0,87,0.00,,,0.00,VWS V14.01,2013-05-19 22:29:00,
2013-05-19 17:30:00,48.8,44.8,29.72,NNW,327,10.0,11.0,86,0.00,,,0.00,VWS V14.01,2013-05-19 22:30:00,
2013-05-19 17:31:00,48.7,44.7,29.72,NW,326,10.0,12.0,86,0.00,,,0.00,VWS V14.01,2013-05-19 22:31:00,
2013-05-19 17:33:00,48.2,44.5,29.72,NNW,348,6.0,12.0,87,0.00,,,0.00,VWS V14.01,2013-05-19 22:33:00,
2013-05-19 17:34:00,48.2,44.5,29.72,NNW,336,8.0,12.0,87,0.00,,,0.00,VWS V14.01,2013-05-19 22:34:00,
2013-05-19 17:35:00,48.2,44.5,29.72,NW,323,8.0,12.0,87,0.00,,,0.00,VWS V14.01,2013-05-19 22:35:00,
2013-05-19 17:36:00,48.2,44.5,29.72,NNW,339,5.0,12.0,87,0.00,,,0.00,VWS V14.01,2013-05-19 22:36:00,
2013-05-19 17:39:00,48.1,44.4,29.72,NNW,328,10.0,12.0,87,0.00,,,0.00,VWS V14.01,2013-05-19 22:39:00,
2013-05-19 17:40:00,48.0,44.3,29.72,NNE,19,5.0,12.0,87,0.00,,,0.00,VWS V14.01,2013-05-19 22:40:00,
2013-05-19 17:41:00,47.9,44.2,29.72,NNW,329,8.0,12.0,87,0.00,,,0.00,VWS V14.01,2013-05-19 22:41:00,
2013-05-19 17:44:00,47.7,44.0,29.73,North,355,7.0,12.0,87,0.00,,,0.00,VWS V14.01,2013-05-19 22:44:00,
2013-05-19 17:46:00,47.6,43.9,29.73,NNW,344,9.0,12.0,87,0.00,,,0.00,VWS V14.01,2013-05-19 22:46:00,
2013-05-19 17:47:00,47.3,43.6,29.73,North,349,8.0,12.0,87,0.00,,,0.00,VWS V14.01,2013-05-19 22:47:00,
2013-05-19 17:49:00,47.1,43.7,29.73,NNW,348,8.0,12.0,88,0.00,,,0.00,VWS V14.01,2013-05-19 22:49:00,
2013-05-19 17:51:00,46.9,43.5,29.73,NNW,328,13.0,13.0,88,0.00,,,0.00,VWS V14.01,2013-05-19 22:51:00,
2013-05-19 17:52:00,46.8,43.4,29.72,North,351,6.0,14.0,88,0.00,,,0.00,VWS V14.01,2013-05-19 22:52:00,
2013-05-19 17:55:00,46.7,43.6,29.72,NNW,342,6.0,8.0,89,0.00,,,0.00,VWS V14.01,2013-05-19 22:55:00,
2013-05-19 17:56:00,46.7,43.3,29.72,NNW,347,10.0,11.0,88,0.00,,,0.00,VWS V14.01,2013-05-19 22:56:00,
2013-05-19 17:57:00,46.6,43.5,29.72,NNW,337,7.0,11.0,89,0.00,,,0.00,VWS V14.01,2013-05-19 22:57:00,
2013-05-19 17:58:00,46.5,43.4,29.72,NNW,336,10.0,11.0,89,0.00,,,0.00,VWS V14.01,2013-05-19 22:58:00,
2013-05-19 18:00:00,46.3,43.2,29.72,NNW,338,9.0,13.0,89,0.00,,OVC004,0.00,VWS V14.01,2013-05-19 23:00:00,
2013-05-19 18:01:00,46.2,43.4,29.72,NNW,332,10.0,13.0,90,0.00,,OVC004,0.00,VWS V14.01,2013-05-19 23:01:00,
2013-05-19 18:02:00,46.1,43.3,29.72,NNW,331,10.0,13.0,90,0.00,,OVC004,0.00,VWS V14.01,2013-05-19 23:02:00,
2013-05-19 18:03:00,46.0,43.2,29.72,NNW,340,8.0,13.0,90,0.00,,OVC004,0.00,VWS V14.01,2013-05-19 23:03:00,
2013-05-19 18:06:00,45.6,43.1,29.72,North,355,6.0,13.0,91,0.00,,OVC004,0.00,VWS V14.01,2013-05-19 23:06:00,
2013-05-19 18:07:00,45.5,43.0,29.73,NNW,338,8.0,13.0,91,0.00,,OVC004,0.00,VWS V14.01,2013-05-19 23:07:00,
2013-05-19 18:08:00,45.4,42.9,29.72,NNW,333,9.0,13.0,91,0.00,,OVC004,0.00,VWS V14.01,2013-05-19 23:08:00,
2013-05-19 18:11:00,45.2,42.7,29.73,NNW,336,6.0,13.0,91,0.00,,OVC004,0.00,VWS V14.01,2013-05-19 23:11:00,
2013-05-19 18:12:00,45.1,42.6,29.72,NNW,347,6.0,13.0,91,0.00,,OVC004,0.00,VWS V14.01,2013-05-19 23:12:00,
2013-05-19 18:13:00,45.1,42.6,29.72,NNW,345,5.0,13.0,91,0.00,,OVC004,0.00,VWS V14.01,2013-05-19 23:13:00,
2013-05-19 18:17:00,44.9,42.4,29.72,NNW,329,9.0,13.0,91,0.00,,OVC004,0.00,VWS V14.01,2013-05-19 23:17:00,
2013-05-19 18:18:00,44.9,42.7,29.72,North,355,7.0,13.0,92,0.00,,OVC004,0.00,VWS V14.01,2013-05-19 23:18:00,
2013-05-19 18:22:00,44.6,42.1,29.72,NNW,340,8.0,13.0,91,0.00,,OVC004,0.00,VWS V14.01,2013-05-19 23:22:00,
2013-05-19 18:23:00,44.6,42.1,29.72,NNW,340,7.0,13.0,91,0.00,,OVC004,0.00,VWS V14.01,2013-05-19 23:23:00,
2013-05-19 18:24:00,44.5,42.3,29.72,NNW,334,11.0,11.0,92,0.00,,OVC004,0.00,VWS V14.01,2013-05-19 23:24:00,
2013-05-19 18:28:00,44.3,42.1,29.71,NNW,330,12.0,12.0,92,0.00,,OVC004,0.00,VWS V14.01,2013-05-19 23:28:00,
2013-05-19 18:29:00,44.3,42.1,29.71,North,351,6.0,12.0,92,0.00,,OVC004,0.00,VWS V14.01,2013-05-19 23:29:00,
2013-05-19 18:33:00,44.2,42.3,29.72,NW,322,8.0,12.0,93,0.00,,OVC004,0.00,VWS V14.01,2013-05-19 23:33:00,
2013-05-19 18:34:00,44.2,42.3,29.72,NNW,329,8.0,14.0,93,0.00,,OVC004,0.00,VWS V14.01,2013-05-19 23:34:00,
2013-05-19 18:38:00,44.0,42.1,29.72,NNW,333,9.0,14.0,93,0.00,,OVC006,0.00,VWS V14.01,2013-05-19 23:38:00,
2013-05-19 18:39:00,44.0,42.1,29.72,NNW,327,10.0,14.0,93,0.00,,OVC006,0.00,VWS V14.01,2013-05-19 23:39:00,
2013-05-19 18:44:00,43.8,41.9,29.71,NNW,331,9.0,14.0,93,0.00,,OVC006,0.00,VWS V14.01,2013-05-19 23:44:00,
2013-05-19 18:45:00,43.8,41.9,29.71,NNW,327,8.0,14.0,93,0.00,,OVC006,0.00,VWS V14.01,2013-05-19 23:45:00,
2013-05-19 18:49:00,43.8,42.2,29.71,NNW,344,5.0,14.0,94,0.00,,OVC006,0.00,VWS V14.01,2013-05-19 23:49:00,
2013-05-19 18:50:00,43.8,42.2,29.71,NNE,22,4.0,14.0,94,0.00,,OVC006,0.00,VWS V14.01,2013-05-19 23:50:00,
2013-05-19 18:54:00,43.8,42.2,29.72,North,5,5.0,6.0,94,0.00,,OVC006,0.00,VWS V14.01,2013-05-19 23:54:00,
2013-05-19 18:55:00,43.8,42.2,29.72,North,5,7.0,7.0,94,0.00,,OVC006,0.00,VWS V14.01,2013-05-19 23:55:00,
2013-05-19 18:59:00,43.8,42.2,29.72,NNE,12,5.0,11.0,94,0.00,,OVC006,0.00,VWS V14.01,2013-05-19 23:59:00,
2013-05-19 19:00:00,43.8,42.2,29.72,North,355,5.0,11.0,94,0.00,,-RA,0.00,VWS V14.01,2013-05-20 00:00:00,
2013-05-19 19:01:00,43.8,42.2,29.72,NW,306,7.0,11.0,94,0.00,,-RA,0.00,VWS V14.01,2013-05-20 00:01:00,
2013-05-19 19:04:00,43.8,42.2,29.71,North,5,6.0,11.0,94,0.00,,-RA,0.00,VWS V14.01,2013-05-20 00:04:00,
2013-05-19 19:06:00,43.8,42.2,29.71,North,9,5.0,11.0,94,0.00,,-RA,0.00,VWS V14.01,2013-05-20 00:06:00,
2013-05-19 19:09:00,43.8,42.2,29.71,ENE,60,4.0,11.0,94,0.00,,-RA,0.00,VWS V14.01,2013-05-20 00:09:00,
2013-05-19 19:11:00,43.8,42.5,29.70,NNE,14,6.0,11.0,95,0.00,,-RA,0.00,VWS V14.01,2013-05-20 00:11:00,
2013-05-19 19:14:00,43.8,42.5,29.70,North,355,5.0,11.0,95,0.00,,-RA,0.00,VWS V14.01,2013-05-20 00:14:00,
2013-05-19 19:15:00,43.8,42.5,29.70,NNW,348,4.0,11.0,95,0.00,,-RA,0.00,VWS V14.01,2013-05-20 00:15:00,
2013-05-19 19:16:00,43.8,42.5,29.69,NNE,19,8.0,11.0,95,0.00,,-RA,0.00,VWS V14.01,2013-05-20 00:16:00,
2013-05-19 19:19:00,43.7,42.4,29.69,North,9,7.0,13.0,95,0.00,,-RA,0.00,VWS V14.01,2013-05-20 00:19:00,
2013-05-19 19:21:00,43.7,42.4,29.70,North,9,5.0,13.0,95,0.00,,-RA,0.00,VWS V14.01,2013-05-20 00:21:00,
2013-05-19 19:24:00,43.8,42.5,29.71,NE,36,1.0,5.0,95,0.00,,-RA,0.00,VWS V14.01,2013-05-20 00:24:00,
2013-05-19 19:26:00,43.8,42.5,29.71,North,360,9.0,10.0,95,0.00,,-RA,0.00,VWS V14.01,2013-05-20 00:26:00,
2013-05-19 19:27:00,43.8,42.5,29.71,NNE,13,4.0,10.0,95,0.00,,-RA,0.00,VWS V14.01,2013-05-20 00:27:00,
2013-05-19 19:29:00,43.8,42.5,29.72,NNE,13,1.0,10.0,95,0.00,,-RA,0.00,VWS V14.01,2013-05-20 00:29:00,
2013-05-19 19:31:00,43.8,42.5,29.71,North,5,6.0,10.0,95,0.00,,-RA,0.00,VWS V14.01,2013-05-20 00:31:00,
2013-05-19 19:32:00,43.9,42.6,29.70,NNW,340,3.0,10.0,95,0.00,,-RA,0.00,VWS V14.01,2013-05-20 00:32:00,
2013-05-19 19:35:00,43.9,42.6,29.70,NNW,330,9.0,13.0,95,0.00,,-RA,0.00,VWS V14.01,2013-05-20 00:35:00,
2013-05-19 19:37:00,43.9,42.6,29.70,NNW,344,5.0,13.0,95,0.00,,-RA,0.00,VWS V14.01,2013-05-20 00:37:00,
2013-05-19 19:38:00,43.9,42.6,29.70,North,9,5.0,13.0,95,0.00,,-RA,0.00,VWS V14.01,2013-05-20 00:38:00,
2013-05-19 19:40:00,43.9,42.6,29.71,NNE,22,2.0,13.0,95,0.00,,-RA,0.00,VWS V14.01,2013-05-20 00:40:00,
2013-05-19 19:42:00,43.8,42.5,29.72,North,5,0.0,13.0,95,0.00,,-RA,0.00,VWS V14.01,2013-05-20 00:42:00,
2013-05-19 19:43:00,43.8,42.5,29.71,North,360,5.0,13.0,95,0.00,,-RA,0.00,VWS V14.01,2013-05-20 00:43:00,
2013-05-19 19:45:00,43.8,42.5,29.71,NNE,26,4.0,13.0,95,0.00,,-RA,0.00,VWS V14.01,2013-05-20 00:45:00,
2013-05-19 19:47:00,43.8,42.5,29.72,North,5,2.0,13.0,95,0.00,,-RA,0.00,VWS V14.01,2013-05-20 00:47:00,
2013-05-19 19:48:00,43.8,42.5,29.73,North,9,0.0,13.0,95,0.00,,-RA,0.00,VWS V14.01,2013-05-20 00:48:00,
2013-05-19 19:49:00,43.8,42.5,29.73,WNW,292,0.0,13.0,95,0.00,,-RA,0.00,VWS V14.01,2013-05-20 00:49:00,
2013-05-19 19:50:00,43.8,42.5,29.74,West,260,0.0,13.0,95,0.00,,-RA,0.00,VWS V14.01,2013-05-20 00:50:00,
2013-05-19 19:52:00,44.0,42.7,29.77,South,191,0.0,13.0,95,0.00,,-RA,0.00,VWS V14.01,2013-05-20 00:52:00,
2013-05-19 19:53:00,44.0,42.7,29.76,South,191,0.0,13.0,95,0.00,,-RA,0.00,VWS V14.01,2013-05-20 00:53:00,
2013-05-19 19:54:00,44.1,42.8,29.76,South,191,0.0,2.0,95,0.00,,-RA,0.00,VWS V14.01,2013-05-20 00:54:00,
2013-05-19 19:55:00,44.1,43.0,29.77,South,191,0.0,2.0,96,0.00,,-RA,0.00,VWS V14.01,2013-05-20 00:55:00,
2013-05-19 19:57:00,44.2,43.1,29.78,South,191,0.0,2.0,96,0.02,,-RA,0.02,VWS V14.01,2013-05-20 00:57:00,
2013-05-19 19:58:00,44.2,43.1,29.77,North,360,2.0,3.0,96,0.03,,-RA,0.03,VWS V14.01,2013-05-20 00:58:00,
2013-05-19 19:59:00,44.3,43.2,29.76,North,360,2.0,4.0,96,0.03,,-RA,0.03,VWS V14.01,2013-05-20 00:59:00,
2013-05-19 20:01:00,44.3,43.2,29.74,NNW,340,4.0,6.0,96,0.05,,-RA,0.05,VWS V14.01,2013-05-20 01:01:00,
2013-05-19 20:02:00,44.3,43.2,29.74,NNW,346,5.0,6.0,96,0.06,,OVC008,0.06,VWS V14.01,2013-05-20 01:02:00,
2013-05-19 20:03:00,44.2,43.1,29.74,NNW,343,5.0,6.0,96,0.06,,OVC008,0.06,VWS V14.01,2013-05-20 01:03:00,
2013-05-19 20:04:00,44.2,43.1,29.73,NNE,21,3.0,6.0,96,0.07,,OVC008,0.07,VWS V14.01,2013-05-20 01:04:00,
2013-05-19 20:06:00,44.2,43.1,29.73,NNW,331,5.0,7.0,96,0.08,,OVC008,0.08,VWS V14.01,2013-05-20 01:06:00,
2013-05-19 20:07:00,44.1,43.0,29.73,NNW,335,6.0,7.0,96,0.08,,OVC008,0.08,VWS V14.01,2013-05-20 01:07:00,
2013-05-19 20:08:00,44.1,43.0,29.73,NNW,336,5.0,7.0,96,0.08,,OVC008,0.08,VWS V14.01,2013-05-20 01:08:00,
2013-05-19 20:09:00,44.0,42.9,29.73,NNW,331,6.0,7.0,96,0.09,,OVC008,0.09,VWS V14.01,2013-05-20 01:09:00,
2013-05-19 20:11:00,44.0,42.9,29.73,NNW,328,2.0,7.0,96,0.09,,OVC008,0.09,VWS V14.01,2013-05-20 01:11:00,
2013-05-19 20:12:00,44.0,42.9,29.74,NNW,328,0.0,7.0,96,0.10,,OVC008,0.10,VWS V14.01,2013-05-20 01:12:00,
2013-05-19 20:13:00,44.0,42.9,29.74,NNW,328,0.0,7.0,96,0.10,,OVC008,0.10,VWS V14.01,2013-05-20 01:13:00,
2013-05-19 20:14:00,44.0,42.9,29.74,NNW,328,0.0,7.0,96,0.10,,OVC008,0.10,VWS V14.01,2013-05-20 01:14:00,
2013-05-19 20:16:00,44.0,42.9,29.74,NW,322,4.0,7.0,96,0.11,,OVC008,0.11,VWS V14.01,2013-05-20 01:16:00,
2013-05-19 20:17:00,44.0,42.9,29.74,NW,321,4.0,7.0,96,0.11,,OVC008,0.11,VWS V14.01,2013-05-20 01:17:00,
2013-05-19 20:18:00,44.0,42.9,29.73,NW,321,4.0,7.0,96,0.11,,OVC008,0.11,VWS V14.01,2013-05-20 01:18:00,
2013-05-19 20:19:00,44.0,42.9,29.73,NW,317,5.0,7.0,96,0.11,,OVC008,0.11,VWS V14.01,2013-05-20 01:19:00,
2013-05-19 20:20:00,44.0,42.9,29.73,NW,309,3.0,7.0,96,0.11,,OVC008,0.11,VWS V14.01,2013-05-20 01:20:00,
2013-05-19 20:21:00,44.0,42.9,29.73,NW,315,2.0,7.0,96,0.11,,OVC008,0.11,VWS V14.01,2013-05-20 01:21:00,
2013-05-19 20:22:00,44.0,42.9,29.73,NW,309,3.0,7.0,96,0.11,,OVC008,0.11,VWS V14.01,2013-05-20 01:22:00,
2013-05-19 20:24:00,43.9,42.8,29.73,NW,325,5.0,5.0,96,0.11,,OVC008,0.11,VWS V14.01,2013-05-20 01:24:00,
2013-05-19 20:25:00,43.9,42.8,29.72,NNW,327,5.0,6.0,96,0.11,,OVC008,0.11,VWS V14.01,2013-05-20 01:25:00,
2013-05-19 20:26:00,43.8,42.7,29.72,NNW,327,6.0,6.0,96,0.11,,OVC008,0.11,VWS V14.01,2013-05-20 01:26:00,
2013-05-19 20:28:00,43.8,42.7,29.72,NNW,330,5.0,6.0,96,0.12,,OVC008,0.12,VWS V14.01,2013-05-20 01:28:00,
2013-05-19 20:29:00,43.8,42.7,29.72,NNW,331,5.0,6.0,96,0.12,,OVC008,0.12,VWS V14.01,2013-05-20 01:29:00,
2013-05-19 20:30:00,43.8,42.7,29.72,NNW,333,6.0,6.0,96,0.12,,OVC008,0.12,VWS V14.01,2013-05-20 01:30:00,
2013-05-19 20:32:00,43.7,42.6,29.71,NNW,329,6.0,6.0,96,0.12,,OVC008,0.12,VWS V14.01,2013-05-20 01:32:00,
2013-05-19 20:33:00,43.7,42.6,29.71,NNW,329,6.0,6.0,96,0.12,, +RA,0.12,VWS V14.01,2013-05-20 01:33:00,
2013-05-19 20:34:00,43.7,42.6,29.71,NNW,329,6.0,6.0,96,0.12,, +RA,0.12,VWS V14.01,2013-05-20 01:34:00,
2013-05-19 20:36:00,43.6,42.8,29.71,NNW,329,4.0,7.0,97,0.13,, +RA,0.13,VWS V14.01,2013-05-20 01:36:00,
2013-05-19 20:37:00,43.6,42.8,29.71,NW,319,6.0,7.0,97,0.13,, +RA,0.13,VWS V14.01,2013-05-20 01:37:00,
2013-05-19 20:38:00,43.6,42.8,29.71,NNW,336,6.0,7.0,97,0.13,, +RA,0.13,VWS V14.01,2013-05-20 01:38:00,
2013-05-19 20:39:00,43.6,42.8,29.71,NNW,336,6.0,7.0,97,0.13,, +RA,0.13,VWS V14.01,2013-05-20 01:39:00,
2013-05-19 20:40:00,43.6,42.8,29.71,NNW,341,5.0,7.0,97,0.13,, +RA,0.13,VWS V14.01,2013-05-20 01:40:00,
2013-05-19 20:41:00,43.5,42.7,29.70,North,5,5.0,7.0,97,0.13,, +RA,0.13,VWS V14.01,2013-05-20 01:41:00,
2013-05-19 20:42:00,43.5,42.7,29.70,NNW,331,5.0,7.0,97,0.13,, +RA,0.13,VWS V14.01,2013-05-20 01:42:00,
2013-05-19 20:43:00,43.5,42.7,29.70,NNW,336,5.0,7.0,97,0.13,, +RA,0.13,VWS V14.01,2013-05-20 01:43:00,
2013-05-19 20:45:00,43.5,42.7,29.71,NW,321,6.0,7.0,97,0.13,, +RA,0.13,VWS V14.01,2013-05-20 01:45:00,
2013-05-19 20:46:00,43.4,42.6,29.71,NW,324,5.0,7.0,97,0.13,, +RA,0.13,VWS V14.01,2013-05-20 01:46:00,
2013-05-19 20:48:00,43.4,42.6,29.70,NNW,342,5.0,7.0,97,0.13,, +RA,0.13,VWS V14.01,2013-05-20 01:48:00,
2013-05-19 20:49:00,43.4,42.6,29.70,NNW,336,6.0,7.0,97,0.13,, +RA,0.13,VWS V14.01,2013-05-20 01:49:00,
2013-05-19 20:50:00,43.4,42.6,29.70,NNW,331,6.0,8.0,97,0.13,, +RA,0.13,VWS V14.01,2013-05-20 01:50:00,
2013-05-19 20:51:00,43.4,42.6,29.70,NNW,347,4.0,8.0,97,0.13,, +RA,0.13,VWS V14.01,2013-05-20 01:51:00,
2013-05-19 20:53:00,43.4,42.6,29.70,NNW,344,2.0,8.0,97,0.13,, +RA,0.13,VWS V14.01,2013-05-20 01:53:00,
2013-05-19 20:54:00,43.4,42.6,29.69,NNW,344,1.0,4.0,97,0.14,, +RA,0.14,VWS V14.01,2013-05-20 01:54:00,
2013-05-19 20:55:00,43.4,42.6,29.70,NNE,30,1.0,4.0,97,0.14,, +RA,0.14,VWS V14.01,2013-05-20 01:55:00,
2013-05-19 20:56:00,43.4,42.6,29.70,NNE,30,0.0,4.0,97,0.14,, +RA,0.14,VWS V14.01,2013-05-20 01:56:00,
2013-05-19 20:58:00,43.5,42.7,29.70,NNW,331,8.0,8.0,97,0.14,, +RA,0.14,VWS V14.01,2013-05-20 01:58:00,
2013-05-19 20:59:00,43.5,42.7,29.70,NNW,340,6.0,9.0,97,0.14,, +RA,0.14,VWS V14.01,2013-05-20 01:59:00,
2013-05-19 21:01:00,43.5,42.7,29.70,NNW,338,4.0,9.0,97,0.14,, +RA,0.14,VWS V14.01,2013-05-20 02:01:00,
2013-05-19 21:02:00,43.5,42.7,29.70,NNW,335,5.0,9.0,97,0.14,,-RA,0.14,VWS V14.01,2013-05-20 02:02:00,
2013-05-19 21:04:00,43.5,42.7,29.70,NNW,336,0.0,9.0,97,0.14,,-RA,0.14,VWS V14.01,2013-05-20 02:04:00,
2013-05-19 21:06:00,43.5,42.7,29.70,NNW,336,1.0,9.0,97,0.14,,-RA,0.14,VWS V14.01,2013-05-20 02:06:00,
2013-05-19 21:08:00,43.5,42.7,29.70,NNW,338,4.0,9.0,97,0.14,,-RA,0.14,VWS V14.01,2013-05-20 02:08:00,
2013-05-19 21:09:00,43.5,42.7,29.70,NW,319,4.0,9.0,97,0.14,,-RA,0.14,VWS V14.01,2013-05-20 02:09:00,
2013-05-19 21:10:00,43.5,42.7,29.70,NNW,331,5.0,9.0,97,0.14,,-RA,0.14,VWS V14.01,2013-05-20 02:10:00,
2013-05-19 21:11:00,43.5,42.7,29.70,NNW,333,5.0,9.0,97,0.14,,-RA,0.14,VWS V14.01,2013-05-20 02:11:00,
2013-05-19 21:14:00,43.4,42.6,29.70,NNW,343,1.0,9.0,97,0.14,,-RA,0.14,VWS V14.01,2013-05-20 02:14:00,
2013-05-19 21:16:00,43.4,42.6,29.70,NNW,343,4.0,9.0,97,0.14,,-RA,0.14,VWS V14.01,2013-05-20 02:16:00,
2013-05-19 21:17:00,43.4,42.6,29.70,NNW,329,6.0,9.0,97,0.14,,-RA,0.14,VWS V14.01,2013-05-20 02:17:00,
2013-05-19 21:19:00,43.4,42.6,29.69,NNW,338,5.0,9.0,97,0.14,,-RA,0.14,VWS V14.01,2013-05-20 02:19:00,
2013-05-19 21:21:00,43.3,42.5,29.69,NNW,338,6.0,9.0,97,0.14,,-RA,0.14,VWS V14.01,2013-05-20 02:21:00,
2013-05-19 21:22:00,43.3,42.5,29.69,NNW,346,2.0,9.0,97,0.14,,-RA,0.14,VWS V14.01,2013-05-20 02:22:00,
2013-05-19 21:26:00,43.3,42.5,29.69,NNE,13,5.0,9.0,97,0.03,,-RA,0.14,VWS V14.01,2013-05-20 02:26:00,
2013-05-19 21:27:00,43.3,42.5,29.69,NNE,15,5.0,9.0,97,0.03,,-RA,0.14,VWS V14.01,2013-05-20 02:27:00,
2013-05-19 21:31:00,43.2,42.4,29.69,North,5,4.0,9.0,97,0.03,,-RA,0.14,VWS V14.01,2013-05-20 02:31:00,
2013-05-19 21:32:00,43.2,42.4,29.69,North,5,2.0,9.0,97,0.03,,-RA,0.14,VWS V14.01,2013-05-20 02:32:00,
2013-05-19 21:33:00,43.2,42.4,29.69,North,5,2.0,9.0,97,0.03,,-RA,0.14,VWS V14.01,2013-05-20 02:33:00,
2013-05-19 21:36:00,43.2,42.7,29.69,North,5,5.0,9.0,98,0.03,,-RA,0.14,VWS V14.01,2013-05-20 02:36:00,
2013-05-19 21:37:00,43.2,42.7,29.70,North,5,4.0,9.0,98,0.03,,-RA,0.14,VWS V14.01,2013-05-20 02:37:00,
2013-05-19 21:38:00,43.2,42.7,29.70,North,5,3.0,9.0,98,0.03,,-RA,0.14,VWS V14.01,2013-05-20 02:38:00,
2013-05-19 21:41:00,43.1,42.3,29.69,NNW,331,9.0,9.0,97,0.03,,-RA,0.14,VWS V14.01,2013-05-20 02:41:00,
2013-05-19 21:42:00,43.1,42.3,29.69,North,355,7.0,9.0,97,0.03,,-RA,0.14,VWS V14.01,2013-05-20 02:42:00,
2013-05-19 21:43:00,43.0,42.2,29.69,NNE,15,5.0,9.0,97,0.03,,-RA,0.14,VWS V14.01,2013-05-20 02:43:00,
2013-05-19 21:47:00,42.9,42.1,29.70,ENE,73,2.0,9.0,97,0.03,,-RA,0.14,VWS V14.01,2013-05-20 02:47:00,
2013-05-19 21:48:00,42.8,42.0,29.70,NE,48,1.0,9.0,97,0.03,,-RA,0.14,VWS V14.01,2013-05-20 02:48:00,
2013-05-19 21:53:00,42.7,42.2,29.70,North,11,1.0,9.0,98,0.03,,-RA,0.14,VWS V14.01,2013-05-20 02:53:00,
2013-05-19 21:55:00,42.7,42.2,29.70,North,11,2.0,5.0,98,0.00,,-RA,0.14,VWS V14.01,2013-05-20 02:55:00,
2013-05-19 21:56:00,42.7,42.2,29.70,North,349,4.0,6.0,98,0.00,,-RA,0.14,VWS V14.01,2013-05-20 02:56:00,
2013-05-19 21:58:00,42.6,41.8,29.70,NNW,347,1.0,6.0,97,0.00,,-RA,0.14,VWS V14.01,2013-05-20 02:58:00,
2013-05-19 21:59:00,42.7,41.9,29.69,North,355,5.0,6.0,97,0.00,,-RA,0.14,VWS V14.01,2013-05-20 02:59:00,
2013-05-19 22:00:00,42.6,41.8,29.70,North,9,5.0,6.0,97,0.00,,-RA,0.14,VWS V14.01,2013-05-20 03:00:00,
2013-05-19 22:01:00,42.6,41.8,29.69,NNW,346,6.0,6.0,97,0.00,,-RA,0.14,VWS V14.01,2013-05-20 03:01:00,
2013-05-19 22:04:00,42.5,41.7,29.69,NNE,28,5.0,8.0,97,0.00,,-RA,0.14,VWS V14.01,2013-05-20 03:04:00,
2013-05-19 22:06:00,42.4,41.6,29.70,North,360,3.0,8.0,97,0.00,,-RA,0.14,VWS V14.01,2013-05-20 03:06:00,
2013-05-19 22:09:00,42.3,41.8,29.69,North,360,2.0,8.0,98,0.00,,-RA,0.14,VWS V14.01,2013-05-20 03:09:00,
2013-05-19 22:11:00,42.3,41.8,29.69,NNW,343,6.0,8.0,98,0.00,,-RA,0.14,VWS V14.01,2013-05-20 03:11:00,
2013-05-19 22:14:00,42.3,41.8,29.69,North,5,2.0,8.0,98,0.00,,-RA,0.14,VWS V14.01,2013-05-20 03:14:00,
2013-05-19 22:15:00,42.3,41.8,29.69,North,5,0.0,8.0,98,0.00,,-RA,0.14,VWS V14.01,2013-05-20 03:15:00,
2013-05-19 22:16:00,42.3,41.8,29.68,North,9,3.0,8.0,98,0.00,,-RA,0.14,VWS V14.01,2013-05-20 03:16:00,
2013-05-19 22:17:00,42.3,41.8,29.68,NW,321,4.0,8.0,98,0.00,,-RA,0.14,VWS V14.01,2013-05-20 03:17:00,
2013-05-19 22:20:00,42.2,41.7,29.69,NNE,24,0.0,8.0,98,0.00,,-RA,0.14,VWS V14.01,2013-05-20 03:20:00,
2013-05-19 22:21:00,42.2,41.7,29.69,NNE,24,4.0,8.0,98,0.00,,-RA,0.14,VWS V14.01,2013-05-20 03:21:00,
2013-05-19 22:22:00,42.2,41.7,29.69,NNE,24,0.0,8.0,98,0.00,,-RA,0.14,VWS V14.01,2013-05-20 03:22:00,
2013-05-19 22:26:00,42.2,41.7,29.69,NW,316,3.0,8.0,98,0.00,,-RA,0.14,VWS V14.01,2013-05-20 03:26:00,
2013-05-19 22:27:00,42.2,41.7,29.69,NW,323,5.0,8.0,98,0.00,,-RA,0.14,VWS V14.01,2013-05-20 03:27:00,
2013-05-19 22:30:00,42.3,41.8,29.69,NNW,340,6.0,6.0,98,0.00,,,0.14,VWS V14.01,2013-05-20 03:30:00,
2013-05-19 22:31:00,42.2,41.7,29.69,NNW,333,4.0,6.0,98,0.00,,-RA,0.14,VWS V14.01,2013-05-20 03:31:00,
2013-05-19 22:32:00,42.2,41.7,29.69,North,355,2.0,6.0,98,0.00,,-RA,0.14,VWS V14.01,2013-05-20 03:32:00,
2013-05-19 22:35:00,42.3,41.8,29.69,North,5,3.0,6.0,98,0.00,,-RA,0.14,VWS V14.01,2013-05-20 03:35:00,
2013-05-19 22:37:00,42.3,41.8,29.69,North,5,4.0,6.0,98,0.00,,-RA,0.14,VWS V14.01,2013-05-20 03:37:00,
2013-05-19 22:40:00,42.4,41.9,29.68,North,9,3.0,6.0,98,0.00,,-RA,0.14,VWS V14.01,2013-05-20 03:40:00,
2013-05-19 22:42:00,42.4,41.9,29.68,North,9,2.0,7.0,98,0.00,,-RA,0.14,VWS V14.01,2013-05-20 03:42:00,
2013-05-19 22:45:00,42.4,41.9,29.69,NNW,333,6.0,7.0,98,0.00,,-RA,0.14,VWS V14.01,2013-05-20 03:45:00,
2013-05-19 22:47:00,42.5,42.0,29.69,NNE,15,1.0,7.0,98,0.00,,-RA,0.14,VWS V14.01,2013-05-20 03:47:00,
2013-05-19 22:48:00,42.5,42.0,29.69,NNW,345,5.0,7.0,98,0.00,,-RA,0.14,VWS V14.01,2013-05-20 03:48:00,
2013-05-19 22:50:00,42.5,42.0,29.69,NNW,340,4.0,8.0,98,0.00,,-RA,0.14,VWS V14.01,2013-05-20 03:50:00,
2013-05-19 22:52:00,42.6,42.1,29.69,NNW,329,7.0,8.0,98,0.00,,-RA,0.14,VWS V14.01,2013-05-20 03:52:00,
2013-05-19 22:53:00,42.6,42.1,29.69,NNW,336,5.0,8.0,98,0.00,,-RA,0.14,VWS V14.01,2013-05-20 03:53:00,
2013-05-19 22:55:00,42.6,42.1,29.68,North,355,2.0,6.0,98,0.00,,-RA,0.14,VWS V14.01,2013-05-20 03:55:00,
2013-05-19 22:57:00,42.6,42.1,29.68,North,350,5.0,7.0,98,0.00,,-RA,0.14,VWS V14.01,2013-05-20 03:57:00,
2013-05-19 22:58:00,42.6,42.1,29.68,North,350,4.0,7.0,98,0.00,,-RA,0.14,VWS V14.01,2013-05-20 03:58:00,
2013-05-19 23:00:00,42.7,42.2,29.68,NNE,28,5.0,7.0,98,0.00,,,0.14,VWS V14.01,2013-05-20 04:00:00,
2013-05-19 23:01:00,42.7,42.2,29.68,NNW,331,4.0,7.0,98,0.00,,,0.14,VWS V14.01,2013-05-20 04:01:00,
2013-05-19 23:06:00,42.7,42.2,29.69,NNW,333,4.0,7.0,98,0.00,,,0.14,VWS V14.01,2013-05-20 04:06:00,
2013-05-19 23:11:00,42.7,42.2,29.69,North,11,4.0,7.0,98,0.00,,,0.14,VWS V14.01,2013-05-20 04:11:00,
2013-05-19 23:12:00,42.7,42.2,29.68,NNW,336,6.0,7.0,98,0.00,,,0.14,VWS V14.01,2013-05-20 04:12:00,
2013-05-19 23:16:00,42.6,42.1,29.68,NNE,22,2.0,8.0,98,0.00,,,0.14,VWS V14.01,2013-05-20 04:16:00,
2013-05-19 23:17:00,42.6,42.1,29.68,NNE,19,6.0,8.0,98,0.00,,,0.14,VWS V14.01,2013-05-20 04:17:00,
2013-05-19 23:21:00,42.6,42.1,29.68,NW,326,4.0,8.0,98,0.00,,,0.14,VWS V14.01,2013-05-20 04:21:00,
2013-05-19 23:22:00,42.6,42.1,29.68,NW,326,4.0,8.0,98,0.00,,,0.14,VWS V14.01,2013-05-20 04:22:00,
2013-05-19 23:23:00,42.6,42.1,29.68,NW,324,4.0,8.0,98,0.00,,,0.14,VWS V14.01,2013-05-20 04:23:00,
2013-05-19 23:26:00,42.6,42.1,29.68,NNW,337,3.0,7.0,98,0.00,,,0.14,VWS V14.01,2013-05-20 04:26:00,
2013-05-19 23:27:00,42.6,42.1,29.68,NNW,337,0.0,7.0,98,0.00,,,0.14,VWS V14.01,2013-05-20 04:27:00,
2013-05-19 23:28:00,42.6,42.1,29.68,NNW,333,1.0,7.0,98,0.00,,,0.14,VWS V14.01,2013-05-20 04:28:00,
2013-05-19 23:31:00,42.6,42.1,29.68,North,9,0.0,7.0,98,0.00,,,0.14,VWS V14.01,2013-05-20 04:31:00,
2013-05-19 23:32:00,42.6,42.1,29.67,NNW,342,2.0,7.0,98,0.00,,,0.14,VWS V14.01,2013-05-20 04:32:00,
2013-05-19 23:33:00,42.6,42.1,29.67,NNW,342,3.0,7.0,98,0.00,,,0.14,VWS V14.01,2013-05-20 04:33:00,
2013-05-19 23:36:00,42.5,42.0,29.67,North,351,2.0,7.0,98,0.00,,,0.14,VWS V14.01,2013-05-20 04:36:00,
2013-05-19 23:37:00,42.5,42.0,29.67,NNW,348,4.0,7.0,98,0.00,,,0.14,VWS V14.01,2013-05-20 04:37:00,
2013-05-19 23:38:00,42.5,42.0,29.67,NNW,348,4.0,7.0,98,0.00,,,0.14,VWS V14.01,2013-05-20 04:38:00,
2013-05-19 23:42:00,42.4,41.9,29.68,North,5,2.0,7.0,98,0.00,,,0.14,VWS V14.01,2013-05-20 04:42:00,
2013-05-19 23:43:00,42.5,42.0,29.68,North,355,4.0,7.0,98,0.00,,,0.14,VWS V14.01,2013-05-20 04:43:00,
2013-05-19 23:47:00,42.4,41.9,29.67,NNW,336,6.0,8.0,98,0.00,,,0.14,VWS V14.01,2013-05-20 04:47:00,
2013-05-19 23:48:00,42.4,41.9,29.67,NNW,329,7.0,8.0,98,0.00,,,0.14,VWS V14.01,2013-05-20 04:48:00,
2013-05-19 23:52:00,42.4,41.9,29.67,NW,325,6.0,9.0,98,0.00,,,0.14,VWS V14.01,2013-05-20 04:52:00,
2013-05-19 23:53:00,42.4,41.9,29.67,NNW,335,4.0,9.0,98,0.00,,,0.14,VWS V14.01,2013-05-20 04:53:00,
2013-05-19 23:54:00,42.4,41.9,29.67,North,349,3.0,3.0,98,0.00,,,0.00,VWS V14.01,2013-05-20 04:54:00,
2013-05-19 23:57:00,42.4,41.9,29.68,North,11,1.0,7.0,98,0.00,,,0.00,VWS V14.01,2013-05-20 04:57:00,
2013-05-19 23:58:00,42.4,41.9,29.68,North,11,0.0,7.0,98,0.00,,,0.00,VWS V14.01,2013-05-20 04:58:00,
2013-05-19 23:59:00,42.3,41.8,29.68,North,5,0.0,7.0,98,0.00,,,0.00,VWS V14.01,2013-05-20 04:59:00,